DTA651 LPPT-FNLU
Flight info
| Callsign | DTA651 |
|---|---|
| Flight time | 6h 39m |
| Altitude | 35000 |
| Route | DUZOP DCT AMSEL UR722 SAK UW900 OZT UJ744 BAGBO UM629 BIDUX/N0491F370 UM629 KELEX/N0496F360 UA608 TYE/N0492F370 UZ136 KINBU UR983 GAPAK UA400 VNA |
| Aircraft | B77W/H-SDE1E2E3FGHIJ2J3J4J5M1RWXY/LB1D1 |
Departure
| Time | 2026-05-05 07:23 |
|---|---|
| Airport | Lisbon Humberto Delgado Airport (LPPT) |
Arrival
| Time | 2026-05-05 14:02 |
|---|---|
| Airport | Quatro de Fevereiro International Airport (FNLU) |
| Time | Latitude | Longitude | Altitude | Speed | Heading |
|---|---|---|---|---|---|
| 2026-05-05 06:52 | 38.77673 | -9.13216 | 348 ft | 0 kts | 121° |
| 2026-05-05 07:08 | 38.77675 | -9.13221 | 342 ft | 3 kts | 121° |
| 2026-05-05 07:09 | 38.77689 | -9.13251 | 354 ft | 4 kts | 121° |
| 2026-05-05 07:09 | 38.77703 | -9.13281 | 353 ft | 4 kts | 121° |
| 2026-05-05 07:09 | 38.77714 | -9.13305 | 354 ft | 2 kts | 121° |
| 2026-05-05 07:09 | 38.77730 | -9.13331 | 355 ft | 5 kts | 145° |
| 2026-05-05 07:10 | 38.77752 | -9.13345 | 357 ft | 6 kts | 168° |
| 2026-05-05 07:10 | 38.77776 | -9.13351 | 359 ft | 6 kts | 168° |
| 2026-05-05 07:10 | 38.77788 | -9.13354 | 360 ft | 3 kts | 168° |
| 2026-05-05 07:12 | 38.77777 | -9.13351 | 359 ft | 4 kts | 168° |
| 2026-05-05 07:13 | 38.77734 | -9.13349 | 357 ft | 8 kts | 192° |
| 2026-05-05 07:13 | 38.77679 | -9.13375 | 352 ft | 8 kts | 201° |
| 2026-05-05 07:13 | 38.77626 | -9.13405 | 356 ft | 8 kts | 201° |
| 2026-05-05 07:13 | 38.77571 | -9.13431 | 356 ft | 8 kts | 194° |
| 2026-05-05 07:14 | 38.77512 | -9.13427 | 351 ft | 9 kts | 169° |
| 2026-05-05 07:14 | 38.77450 | -9.13410 | 353 ft | 9 kts | 168° |
| 2026-05-05 07:14 | 38.77387 | -9.13393 | 351 ft | 9 kts | 168° |
| 2026-05-05 07:14 | 38.77325 | -9.13389 | 356 ft | 9 kts | 207° |
| 2026-05-05 07:15 | 38.77302 | -9.13462 | 358 ft | 9 kts | 258° |
| 2026-05-05 07:15 | 38.77288 | -9.13542 | 360 ft | 9 kts | 257° |
| 2026-05-05 07:15 | 38.77275 | -9.13620 | 358 ft | 9 kts | 259° |
| 2026-05-05 07:15 | 38.77263 | -9.13700 | 364 ft | 9 kts | 259° |
| 2026-05-05 07:16 | 38.77250 | -9.13779 | 362 ft | 9 kts | 258° |
| 2026-05-05 07:16 | 38.77222 | -9.13848 | 366 ft | 9 kts | 212° |
| 2026-05-05 07:16 | 38.77163 | -9.13881 | 360 ft | 9 kts | 202° |
| 2026-05-05 07:16 | 38.77104 | -9.13913 | 361 ft | 9 kts | 203° |
| 2026-05-05 07:17 | 38.77043 | -9.13946 | 359 ft | 10 kts | 202° |
| 2026-05-05 07:17 | 38.76972 | -9.13984 | 358 ft | 12 kts | 202° |
| 2026-05-05 07:17 | 38.76890 | -9.14027 | 353 ft | 14 kts | 202° |
| 2026-05-05 07:17 | 38.76798 | -9.14076 | 353 ft | 15 kts | 202° |
| 2026-05-05 07:18 | 38.76704 | -9.14127 | 353 ft | 15 kts | 202° |
| 2026-05-05 07:18 | 38.76611 | -9.14176 | 354 ft | 14 kts | 202° |
| 2026-05-05 07:18 | 38.76562 | -9.14202 | 353 ft | 6 kts | 202° |
| 2026-05-05 07:18 | 38.76530 | -9.14227 | 354 ft | 5 kts | 232° |
| 2026-05-05 07:19 | 38.76531 | -9.14279 | 351 ft | 4 kts | 284° |
| 2026-05-05 07:19 | 38.76531 | -9.14280 | 350 ft | 0 kts | 285° |
| 2026-05-05 07:20 | 38.76533 | -9.14286 | 352 ft | 4 kts | 287° |
| 2026-05-05 07:21 | 38.76549 | -9.14339 | 335 ft | 8 kts | 294° |
| 2026-05-05 07:21 | 38.76584 | -9.14396 | 335 ft | 8 kts | 335° |
| 2026-05-05 07:21 | 38.76643 | -9.14388 | 336 ft | 9 kts | 21° |
| 2026-05-05 07:21 | 38.76650 | -9.14385 | 336 ft | 0 kts | 21° |
| 2026-05-05 07:22 | 38.76671 | -9.14374 | 351 ft | 19 kts | 22° |
| 2026-05-05 07:22 | 38.77035 | -9.14180 | 361 ft | 92 kts | 22° |
| 2026-05-05 07:22 | 38.77831 | -9.13754 | 371 ft | 154 kts | 22° |
| 2026-05-05 07:22 | 38.78972 | -9.13140 | 401 ft | 196 kts | 22° |
| 2026-05-05 07:23 | 38.80152 | -9.12446 | 1158 ft | 183 kts | 24° |
| 2026-05-05 07:23 | 38.81277 | -9.11693 | 1925 ft | 182 kts | 26° |
| 2026-05-05 07:23 | 38.82405 | -9.10899 | 2442 ft | 192 kts | 25° |
| 2026-05-05 07:23 | 38.83649 | -9.10044 | 2693 ft | 214 kts | 25° |
| 2026-05-05 07:24 | 38.85015 | -9.09052 | 3008 ft | 237 kts | 28° |
| 2026-05-05 07:24 | 38.86430 | -9.07888 | 3603 ft | 244 kts | 37° |
| 2026-05-05 07:24 | 38.87186 | -9.06780 | 3973 ft | 256 kts | 57° |
| 2026-05-05 07:24 | 38.87781 | -9.04596 | 4725 ft | 265 kts | 78° |
| 2026-05-05 07:25 | 38.87865 | -9.02198 | 5419 ft | 275 kts | 90° |
| 2026-05-05 07:25 | 38.87417 | -8.99791 | 6088 ft | 284 kts | 114° |
| 2026-05-05 07:25 | 38.86284 | -8.97702 | 6790 ft | 289 kts | 137° |
| 2026-05-05 07:25 | 38.84507 | -8.96510 | 7463 ft | 294 kts | 170° |
| 2026-05-05 07:26 | 38.82492 | -8.96658 | 8141 ft | 292 kts | 201° |
| 2026-05-05 07:26 | 38.80646 | -8.97707 | 8764 ft | 291 kts | 207° |
| 2026-05-05 07:26 | 38.78742 | -8.98653 | 9332 ft | 297 kts | 193° |
| 2026-05-05 07:26 | 38.76653 | -8.98508 | 9894 ft | 306 kts | 163° |
| 2026-05-05 07:27 | 38.74644 | -8.97591 | 10401 ft | 312 kts | 162° |
| 2026-05-05 07:27 | 38.72516 | -8.96673 | 10625 ft | 334 kts | 163° |
| 2026-05-05 07:27 | 38.70223 | -8.95718 | 10803 ft | 357 kts | 164° |
| 2026-05-05 07:27 | 38.67779 | -8.94712 | 10993 ft | 380 kts | 164° |
| 2026-05-05 07:28 | 38.65216 | -8.93662 | 11487 ft | 393 kts | 164° |
| 2026-05-05 07:28 | 38.62578 | -8.92582 | 12181 ft | 402 kts | 165° |
| 2026-05-05 07:28 | 38.59899 | -8.91487 | 13064 ft | 406 kts | 165° |
| 2026-05-05 07:28 | 38.57201 | -8.90387 | 13953 ft | 411 kts | 166° |
| 2026-05-05 07:29 | 38.54455 | -8.89269 | 14719 ft | 417 kts | 166° |
| 2026-05-05 07:29 | 38.51685 | -8.88144 | 15527 ft | 420 kts | 166° |
| 2026-05-05 07:29 | 38.48885 | -8.87008 | 16356 ft | 424 kts | 166° |
| 2026-05-05 07:29 | 38.46061 | -8.85863 | 17165 ft | 428 kts | 166° |
| 2026-05-05 07:30 | 38.43208 | -8.84707 | 17967 ft | 432 kts | 167° |
| 2026-05-05 07:30 | 38.37444 | -8.82377 | 19363 ft | 441 kts | 167° |
| 2026-05-05 07:30 | 38.34509 | -8.81192 | 20055 ft | 444 kts | 167° |
| 2026-05-05 07:31 | 38.31536 | -8.79992 | 20707 ft | 448 kts | 167° |
| 2026-05-05 07:31 | 38.28558 | -8.78791 | 21425 ft | 450 kts | 167° |
| 2026-05-05 07:31 | 38.25556 | -8.77581 | 22093 ft | 454 kts | 167° |
| 2026-05-05 07:31 | 38.22519 | -8.76359 | 22705 ft | 459 kts | 168° |
| 2026-05-05 07:32 | 38.19462 | -8.75130 | 23301 ft | 464 kts | 168° |
| 2026-05-05 07:32 | 38.16369 | -8.73888 | 23875 ft | 468 kts | 168° |
| 2026-05-05 07:32 | 38.13254 | -8.72638 | 24399 ft | 471 kts | 168° |
| 2026-05-05 07:32 | 38.10121 | -8.71380 | 24944 ft | 474 kts | 169° |
| 2026-05-05 07:33 | 38.06969 | -8.70116 | 25491 ft | 476 kts | 169° |
| 2026-05-05 07:33 | 38.03797 | -8.68845 | 26010 ft | 479 kts | 169° |
| 2026-05-05 07:33 | 38.00604 | -8.67569 | 26482 ft | 482 kts | 169° |
| 2026-05-05 07:33 | 37.97393 | -8.66287 | 26940 ft | 486 kts | 169° |
| 2026-05-05 07:34 | 37.94197 | -8.65011 | 27388 ft | 489 kts | 169° |
| 2026-05-05 07:34 | 37.90943 | -8.63712 | 27851 ft | 492 kts | 170° |
| 2026-05-05 07:34 | 37.87667 | -8.62406 | 28277 ft | 495 kts | 170° |
| 2026-05-05 07:34 | 37.84371 | -8.61094 | 28659 ft | 498 kts | 170° |
| 2026-05-05 07:35 | 37.81055 | -8.59775 | 29048 ft | 500 kts | 170° |
| 2026-05-05 07:35 | 37.77724 | -8.58451 | 29420 ft | 503 kts | 170° |
| 2026-05-05 07:35 | 37.74375 | -8.57120 | 29776 ft | 506 kts | 170° |
| 2026-05-05 07:35 | 37.71010 | -8.55785 | 30136 ft | 508 kts | 170° |
| 2026-05-05 07:36 | 37.67633 | -8.54446 | 30517 ft | 507 kts | 170° |
| 2026-05-05 07:36 | 37.64273 | -8.53111 | 30938 ft | 505 kts | 170° |
| 2026-05-05 07:36 | 37.60926 | -8.51783 | 31488 ft | 501 kts | 170° |
| 2026-05-05 07:36 | 37.57655 | -8.50486 | 31961 ft | 498 kts | 170° |
| 2026-05-05 07:37 | 37.54353 | -8.49181 | 32366 ft | 497 kts | 170° |
| 2026-05-05 07:37 | 37.51055 | -8.47881 | 32718 ft | 496 kts | 171° |
| 2026-05-05 07:37 | 37.47758 | -8.46583 | 33061 ft | 496 kts | 171° |
| 2026-05-05 07:37 | 37.44461 | -8.45286 | 33455 ft | 495 kts | 171° |
| 2026-05-05 07:38 | 37.41179 | -8.43995 | 33801 ft | 493 kts | 171° |
| 2026-05-05 07:38 | 37.37910 | -8.42710 | 34243 ft | 490 kts | 170° |
| 2026-05-05 07:38 | 37.34669 | -8.41436 | 34615 ft | 487 kts | 170° |
| 2026-05-05 07:38 | 37.31427 | -8.40164 | 34889 ft | 487 kts | 170° |
| 2026-05-05 07:39 | 37.28185 | -8.38893 | 35042 ft | 489 kts | 170° |
| 2026-05-05 07:39 | 37.24957 | -8.37632 | 35091 ft | 492 kts | 170° |
| 2026-05-05 07:39 | 37.18435 | -8.35085 | 35108 ft | 489 kts | 170° |
| 2026-05-05 07:40 | 37.11966 | -8.32556 | 35108 ft | 484 kts | 170° |
| 2026-05-05 07:40 | 37.05547 | -8.30053 | 35104 ft | 481 kts | 170° |
| 2026-05-05 07:41 | 36.99197 | -8.27584 | 35101 ft | 480 kts | 170° |
| 2026-05-05 07:41 | 36.92816 | -8.25109 | 35081 ft | 480 kts | 170° |
| 2026-05-05 07:42 | 36.86415 | -8.22630 | 35105 ft | 481 kts | 170° |
| 2026-05-05 07:42 | 36.80012 | -8.20153 | 35110 ft | 482 kts | 170° |
| 2026-05-05 07:43 | 36.73595 | -8.17674 | 35109 ft | 483 kts | 170° |
| 2026-05-05 07:43 | 36.67168 | -8.15195 | 35101 ft | 483 kts | 169° |
| 2026-05-05 07:44 | 36.60742 | -8.12721 | 35106 ft | 482 kts | 169° |
| 2026-05-05 07:44 | 36.54363 | -8.10269 | 35102 ft | 482 kts | 169° |
| 2026-05-05 07:45 | 36.47956 | -8.07812 | 35106 ft | 481 kts | 169° |
| 2026-05-05 07:45 | 36.41563 | -8.05364 | 35101 ft | 480 kts | 169° |
| 2026-05-05 07:46 | 36.35182 | -8.02925 | 35100 ft | 480 kts | 169° |
| 2026-05-05 07:46 | 36.28790 | -8.00486 | 35101 ft | 480 kts | 169° |
| 2026-05-05 07:47 | 36.22409 | -7.98055 | 35085 ft | 480 kts | 169° |
| 2026-05-05 07:47 | 36.16074 | -7.95646 | 35095 ft | 480 kts | 169° |
| 2026-05-05 07:48 | 36.09671 | -7.93214 | 35102 ft | 481 kts | 169° |
| 2026-05-05 07:48 | 36.03269 | -7.90787 | 35101 ft | 481 kts | 169° |
| 2026-05-05 07:49 | 35.96836 | -7.88541 | 35077 ft | 477 kts | 174° |
| 2026-05-05 07:49 | 35.90351 | -7.87625 | 35102 ft | 470 kts | 182° |
| 2026-05-05 07:50 | 35.83817 | -7.87106 | 35094 ft | 471 kts | 181° |
| 2026-05-05 07:50 | 35.77271 | -7.86541 | 35098 ft | 471 kts | 181° |
| 2026-05-05 07:51 | 35.70727 | -7.85949 | 35096 ft | 472 kts | 181° |
| 2026-05-05 07:51 | 35.64164 | -7.85352 | 35091 ft | 472 kts | 181° |
| 2026-05-05 07:52 | 35.57619 | -7.84760 | 35094 ft | 471 kts | 181° |
| 2026-05-05 07:52 | 35.51117 | -7.84174 | 35098 ft | 471 kts | 181° |
| 2026-05-05 07:53 | 35.44571 | -7.83585 | 35088 ft | 470 kts | 181° |
| 2026-05-05 07:53 | 35.38050 | -7.83008 | 35095 ft | 470 kts | 181° |
| 2026-05-05 07:54 | 35.31518 | -7.82464 | 35095 ft | 470 kts | 181° |
| 2026-05-05 07:54 | 35.24990 | -7.81923 | 35096 ft | 470 kts | 181° |
| 2026-05-05 07:55 | 35.18498 | -7.81383 | 35090 ft | 470 kts | 181° |
| 2026-05-05 07:55 | 35.11951 | -7.80837 | 35096 ft | 471 kts | 181° |
| 2026-05-05 07:56 | 35.05411 | -7.80291 | 35096 ft | 472 kts | 181° |
| 2026-05-05 07:56 | 34.98852 | -7.79745 | 35079 ft | 472 kts | 181° |
| 2026-05-05 07:57 | 34.92290 | -7.79200 | 35092 ft | 472 kts | 181° |
| 2026-05-05 07:57 | 34.85727 | -7.78655 | 35100 ft | 473 kts | 181° |
| 2026-05-05 07:58 | 34.79154 | -7.78110 | 35094 ft | 473 kts | 181° |
| 2026-05-05 07:58 | 34.72625 | -7.77575 | 35082 ft | 473 kts | 181° |
| 2026-05-05 07:59 | 34.66055 | -7.77105 | 35092 ft | 472 kts | 181° |
| 2026-05-05 07:59 | 34.59492 | -7.76657 | 35096 ft | 473 kts | 181° |
| 2026-05-05 08:00 | 34.52922 | -7.76201 | 35096 ft | 473 kts | 181° |
| 2026-05-05 08:00 | 34.46342 | -7.75738 | 35081 ft | 473 kts | 181° |
| 2026-05-05 08:01 | 34.39778 | -7.75276 | 35091 ft | 472 kts | 181° |
| 2026-05-05 08:01 | 34.33213 | -7.74816 | 35088 ft | 472 kts | 181° |
| 2026-05-05 08:02 | 34.26651 | -7.74356 | 35089 ft | 472 kts | 181° |
| 2026-05-05 08:02 | 34.20141 | -7.73901 | 35079 ft | 471 kts | 182° |
| 2026-05-05 08:03 | 34.13587 | -7.73375 | 35089 ft | 472 kts | 181° |
| 2026-05-05 08:03 | 34.07042 | -7.72750 | 35087 ft | 472 kts | 180° |
| 2026-05-05 08:04 | 34.00491 | -7.72127 | 35087 ft | 472 kts | 181° |
| 2026-05-05 08:04 | 33.93947 | -7.71520 | 35077 ft | 471 kts | 181° |
| 2026-05-05 08:05 | 33.87400 | -7.70921 | 35085 ft | 471 kts | 181° |
| 2026-05-05 08:05 | 33.80892 | -7.70327 | 35085 ft | 472 kts | 181° |
| 2026-05-05 08:06 | 33.74341 | -7.69728 | 35075 ft | 472 kts | 181° |
| 2026-05-05 08:06 | 33.67782 | -7.69128 | 35072 ft | 472 kts | 182° |
| 2026-05-05 08:07 | 33.61222 | -7.68530 | 35077 ft | 473 kts | 182° |
| 2026-05-05 08:07 | 33.54654 | -7.67887 | 35076 ft | 476 kts | 179° |
| 2026-05-05 08:08 | 33.48125 | -7.66138 | 35075 ft | 487 kts | 168° |
| 2026-05-05 08:08 | 33.41730 | -7.63373 | 35061 ft | 488 kts | 167° |
| 2026-05-05 08:09 | 33.35344 | -7.60613 | 35076 ft | 488 kts | 168° |
| 2026-05-05 08:09 | 33.28988 | -7.57919 | 35074 ft | 488 kts | 168° |
| 2026-05-05 08:10 | 33.22581 | -7.55222 | 35077 ft | 488 kts | 168° |
| 2026-05-05 08:10 | 33.16162 | -7.52520 | 35080 ft | 489 kts | 168° |
| 2026-05-05 08:11 | 33.09715 | -7.49979 | 35068 ft | 484 kts | 173° |
| 2026-05-05 08:11 | 33.03178 | -7.48191 | 35079 ft | 482 kts | 175° |
| 2026-05-05 08:12 | 32.96634 | -7.46407 | 35066 ft | 482 kts | 174° |
| 2026-05-05 08:12 | 32.90095 | -7.44576 | 35061 ft | 482 kts | 174° |
| 2026-05-05 08:13 | 32.83582 | -7.42738 | 35067 ft | 481 kts | 174° |
| 2026-05-05 08:13 | 32.77113 | -7.40892 | 35063 ft | 481 kts | 174° |
| 2026-05-05 08:14 | 32.70610 | -7.39042 | 35058 ft | 480 kts | 174° |
| 2026-05-05 08:14 | 32.65205 | -7.37509 | 35035 ft | 479 kts | 174° |
| 2026-05-05 08:15 | 32.58719 | -7.35679 | 35058 ft | 479 kts | 174° |
| 2026-05-05 08:15 | 32.52225 | -7.33881 | 35061 ft | 480 kts | 174° |
| 2026-05-05 08:16 | 32.45709 | -7.32079 | 35061 ft | 480 kts | 174° |
| 2026-05-05 08:16 | 32.39201 | -7.30278 | 35035 ft | 480 kts | 175° |
| 2026-05-05 08:17 | 32.32686 | -7.28475 | 35056 ft | 480 kts | 175° |
| 2026-05-05 08:17 | 32.26172 | -7.26676 | 35057 ft | 481 kts | 175° |
| 2026-05-05 08:18 | 32.19651 | -7.24855 | 35057 ft | 482 kts | 174° |
| 2026-05-05 08:18 | 32.13165 | -7.23029 | 35025 ft | 482 kts | 175° |
| 2026-05-05 08:19 | 32.06639 | -7.21198 | 35053 ft | 482 kts | 175° |
| 2026-05-05 08:19 | 32.00120 | -7.19378 | 35053 ft | 481 kts | 175° |
| 2026-05-05 08:20 | 31.93601 | -7.17587 | 35060 ft | 481 kts | 175° |
| 2026-05-05 08:20 | 31.87075 | -7.15803 | 35026 ft | 481 kts | 175° |
| 2026-05-05 08:21 | 31.80566 | -7.14021 | 35053 ft | 480 kts | 175° |
| 2026-05-05 08:21 | 31.74069 | -7.12244 | 35057 ft | 479 kts | 175° |
| 2026-05-05 08:22 | 31.67578 | -7.10471 | 35060 ft | 478 kts | 175° |
| 2026-05-05 08:22 | 31.61104 | -7.08705 | 35056 ft | 478 kts | 175° |
| 2026-05-05 08:23 | 31.54679 | -7.06954 | 35040 ft | 477 kts | 175° |
| 2026-05-05 08:23 | 31.48212 | -7.05196 | 35044 ft | 476 kts | 176° |
| 2026-05-05 08:24 | 31.41756 | -7.03442 | 35020 ft | 476 kts | 176° |
| 2026-05-05 08:24 | 31.35325 | -7.01697 | 35038 ft | 474 kts | 176° |
| 2026-05-05 08:25 | 31.28879 | -6.99948 | 35019 ft | 476 kts | 176° |
| 2026-05-05 08:25 | 31.22408 | -6.98191 | 35000 ft | 478 kts | 176° |
| 2026-05-05 08:26 | 31.15950 | -6.96440 | 34997 ft | 480 kts | 176° |
| 2026-05-05 08:26 | 31.09423 | -6.94670 | 34988 ft | 481 kts | 176° |
| 2026-05-05 08:27 | 31.02900 | -6.92904 | 34977 ft | 480 kts | 176° |
| 2026-05-05 08:27 | 30.96435 | -6.90782 | 34983 ft | 497 kts | 162° |
| 2026-05-05 08:28 | 30.93512 | -6.88498 | 34978 ft | 518 kts | 146° |
| 2026-05-05 08:28 | 30.91118 | -6.85254 | 34969 ft | 538 kts | 128° |
| 2026-05-05 08:28 | 30.87463 | -6.77555 | 34989 ft | 548 kts | 124° |
| 2026-05-05 08:29 | 30.83796 | -6.69787 | 34978 ft | 551 kts | 125° |
| 2026-05-05 08:30 | 30.78118 | -6.58171 | 34929 ft | 550 kts | 126° |
| 2026-05-05 08:30 | 30.74301 | -6.50473 | 34965 ft | 549 kts | 126° |
| 2026-05-05 08:31 | 30.70480 | -6.42775 | 34966 ft | 550 kts | 127° |
| 2026-05-05 08:31 | 30.66650 | -6.35061 | 34960 ft | 551 kts | 127° |
| 2026-05-05 08:32 | 30.62809 | -6.27331 | 34970 ft | 552 kts | 127° |
| 2026-05-05 08:32 | 30.58965 | -6.19612 | 34955 ft | 552 kts | 127° |
| 2026-05-05 08:33 | 30.55116 | -6.11900 | 34941 ft | 551 kts | 127° |
| 2026-05-05 08:33 | 30.51297 | -6.04261 | 34947 ft | 550 kts | 127° |
| 2026-05-05 08:34 | 30.47456 | -5.96594 | 34938 ft | 549 kts | 127° |
| 2026-05-05 08:34 | 30.43618 | -5.88951 | 34937 ft | 548 kts | 127° |
| 2026-05-05 08:35 | 30.39780 | -5.81319 | 34941 ft | 547 kts | 127° |
| 2026-05-05 08:35 | 30.35950 | -5.73717 | 34941 ft | 547 kts | 127° |
| 2026-05-05 08:36 | 30.31491 | -5.66793 | 34942 ft | 524 kts | 146° |
| 2026-05-05 08:36 | 30.28708 | -5.64150 | 34944 ft | 512 kts | 154° |
| 2026-05-05 08:36 | 30.25707 | -5.62019 | 34906 ft | 498 kts | 165° |
| 2026-05-05 08:37 | 30.19453 | -5.58882 | 34927 ft | 493 kts | 167° |
| 2026-05-05 08:37 | 30.13142 | -5.55714 | 34934 ft | 496 kts | 166° |
| 2026-05-05 08:38 | 30.06810 | -5.52476 | 34928 ft | 498 kts | 166° |
| 2026-05-05 08:38 | 30.00470 | -5.49208 | 34937 ft | 499 kts | 166° |
| 2026-05-05 08:39 | 29.94124 | -5.45939 | 34915 ft | 500 kts | 166° |
| 2026-05-05 08:39 | 29.87766 | -5.42670 | 34919 ft | 499 kts | 166° |
| 2026-05-05 08:40 | 29.81469 | -5.39442 | 34920 ft | 498 kts | 166° |
| 2026-05-05 08:40 | 29.75138 | -5.36202 | 34916 ft | 497 kts | 166° |
| 2026-05-05 08:41 | 29.68816 | -5.32971 | 34884 ft | 496 kts | 166° |
| 2026-05-05 08:41 | 29.62521 | -5.29756 | 34908 ft | 495 kts | 166° |
| 2026-05-05 08:42 | 29.56225 | -5.26547 | 34912 ft | 494 kts | 166° |
| 2026-05-05 08:42 | 29.49941 | -5.23349 | 34912 ft | 494 kts | 166° |
| 2026-05-05 08:43 | 29.43660 | -5.20156 | 34878 ft | 494 kts | 166° |
| 2026-05-05 08:43 | 29.37383 | -5.16969 | 34901 ft | 493 kts | 166° |
| 2026-05-05 08:44 | 29.31120 | -5.13794 | 34904 ft | 492 kts | 166° |
| 2026-05-05 08:44 | 29.24889 | -5.10640 | 34899 ft | 493 kts | 166° |
| 2026-05-05 08:45 | 29.18612 | -5.07466 | 34920 ft | 493 kts | 166° |
| 2026-05-05 08:45 | 29.12339 | -5.04298 | 34902 ft | 492 kts | 166° |
| 2026-05-05 08:46 | 29.06071 | -5.01137 | 34905 ft | 492 kts | 166° |
| 2026-05-05 08:46 | 28.99803 | -4.97980 | 34913 ft | 492 kts | 166° |
| 2026-05-05 08:47 | 28.93534 | -4.94827 | 34900 ft | 492 kts | 167° |
| 2026-05-05 08:47 | 28.87314 | -4.91703 | 34911 ft | 491 kts | 167° |
| 2026-05-05 08:48 | 28.81068 | -4.88569 | 34900 ft | 490 kts | 167° |
| 2026-05-05 08:48 | 28.74813 | -4.85436 | 34905 ft | 490 kts | 167° |
| 2026-05-05 08:49 | 28.68568 | -4.82312 | 34910 ft | 490 kts | 167° |
| 2026-05-05 08:49 | 28.62321 | -4.79191 | 34910 ft | 490 kts | 167° |
| 2026-05-05 08:50 | 28.56110 | -4.76092 | 34893 ft | 490 kts | 167° |
| 2026-05-05 08:50 | 28.49867 | -4.72980 | 34910 ft | 490 kts | 167° |
| 2026-05-05 08:51 | 28.43614 | -4.69868 | 34919 ft | 490 kts | 167° |
| 2026-05-05 08:51 | 28.37348 | -4.66754 | 34908 ft | 491 kts | 167° |
| 2026-05-05 08:52 | 28.31094 | -4.63649 | 34905 ft | 491 kts | 167° |
| 2026-05-05 08:52 | 28.24883 | -4.60569 | 34900 ft | 490 kts | 167° |
| 2026-05-05 08:53 | 28.18625 | -4.57469 | 34906 ft | 490 kts | 167° |
| 2026-05-05 08:53 | 28.12368 | -4.54374 | 34898 ft | 490 kts | 166° |
| 2026-05-05 08:54 | 28.06108 | -4.51282 | 34922 ft | 491 kts | 166° |
| 2026-05-05 08:54 | 27.99802 | -4.48319 | 34910 ft | 487 kts | 169° |
| 2026-05-05 08:55 | 27.93485 | -4.45717 | 34915 ft | 486 kts | 170° |
| 2026-05-05 08:55 | 27.87108 | -4.43128 | 34916 ft | 487 kts | 170° |
| 2026-05-05 08:56 | 27.80727 | -4.40513 | 34904 ft | 488 kts | 170° |
| 2026-05-05 08:56 | 27.74347 | -4.37884 | 34915 ft | 488 kts | 170° |
| 2026-05-05 08:57 | 27.67969 | -4.35256 | 34911 ft | 488 kts | 170° |
| 2026-05-05 08:57 | 27.61583 | -4.32630 | 34915 ft | 488 kts | 170° |
| 2026-05-05 08:58 | 27.55206 | -4.30011 | 34916 ft | 487 kts | 170° |
| 2026-05-05 08:58 | 27.48838 | -4.27401 | 34920 ft | 487 kts | 170° |
| 2026-05-05 08:59 | 27.42466 | -4.24791 | 34922 ft | 487 kts | 170° |
| 2026-05-05 08:59 | 27.36104 | -4.22189 | 34916 ft | 486 kts | 170° |
| 2026-05-05 09:00 | 27.29780 | -4.19605 | 34922 ft | 487 kts | 170° |
| 2026-05-05 09:00 | 27.23408 | -4.17005 | 34932 ft | 487 kts | 170° |
| 2026-05-05 09:01 | 27.17031 | -4.14394 | 34935 ft | 488 kts | 170° |
| 2026-05-05 09:01 | 27.10655 | -4.11775 | 34899 ft | 488 kts | 169° |
| 2026-05-05 09:02 | 27.04308 | -4.09171 | 34923 ft | 488 kts | 170° |
| 2026-05-05 09:02 | 26.97935 | -4.06561 | 34932 ft | 488 kts | 170° |
| 2026-05-05 09:03 | 26.91558 | -4.03953 | 34929 ft | 487 kts | 170° |
| 2026-05-05 09:03 | 26.85186 | -4.01351 | 34930 ft | 487 kts | 170° |
| 2026-05-05 09:04 | 26.79890 | -3.99191 | 34917 ft | 487 kts | 170° |
| 2026-05-05 09:04 | 26.73527 | -3.96597 | 34938 ft | 486 kts | 170° |
| 2026-05-05 09:05 | 26.66100 | -3.93575 | 34936 ft | 486 kts | 170° |
| 2026-05-05 09:05 | 26.60819 | -3.91429 | 34938 ft | 485 kts | 170° |
| 2026-05-05 09:06 | 26.54470 | -3.88851 | 34939 ft | 486 kts | 170° |
| 2026-05-05 09:06 | 26.48114 | -3.86273 | 34931 ft | 485 kts | 169° |
| 2026-05-05 09:07 | 26.41804 | -3.83717 | 34937 ft | 485 kts | 169° |
| 2026-05-05 09:07 | 26.35454 | -3.81148 | 34931 ft | 486 kts | 169° |
| 2026-05-05 09:08 | 26.29088 | -3.78575 | 34946 ft | 486 kts | 169° |
| 2026-05-05 09:08 | 26.22706 | -3.75999 | 34940 ft | 487 kts | 169° |
| 2026-05-05 09:09 | 26.16331 | -3.73426 | 34935 ft | 487 kts | 169° |
| 2026-05-05 09:09 | 26.09986 | -3.70867 | 34940 ft | 488 kts | 169° |
| 2026-05-05 09:10 | 26.03595 | -3.68240 | 34935 ft | 490 kts | 168° |
| 2026-05-05 09:10 | 25.97201 | -3.65596 | 34935 ft | 490 kts | 168° |
| 2026-05-05 09:11 | 25.90803 | -3.62957 | 34933 ft | 490 kts | 168° |
| 2026-05-05 09:11 | 25.84412 | -3.60329 | 34925 ft | 490 kts | 168° |
| 2026-05-05 09:12 | 25.78016 | -3.57704 | 34932 ft | 490 kts | 168° |
| 2026-05-05 09:12 | 25.71625 | -3.55084 | 34925 ft | 490 kts | 168° |
| 2026-05-05 09:13 | 25.65275 | -3.52484 | 34932 ft | 490 kts | 168° |
| 2026-05-05 09:13 | 25.58879 | -3.49868 | 34906 ft | 490 kts | 168° |
| 2026-05-05 09:14 | 25.52484 | -3.47255 | 34923 ft | 489 kts | 168° |
| 2026-05-05 09:14 | 25.46092 | -3.44646 | 34927 ft | 489 kts | 168° |
| 2026-05-05 09:15 | 25.39705 | -3.42043 | 34919 ft | 489 kts | 168° |
| 2026-05-05 09:15 | 25.33318 | -3.39443 | 34925 ft | 489 kts | 168° |
| 2026-05-05 09:16 | 25.26926 | -3.36843 | 34922 ft | 489 kts | 168° |
| 2026-05-05 09:16 | 25.20570 | -3.34261 | 34931 ft | 489 kts | 168° |
| 2026-05-05 09:17 | 25.14179 | -3.31667 | 34941 ft | 490 kts | 168° |
| 2026-05-05 09:17 | 25.07777 | -3.29072 | 34936 ft | 490 kts | 168° |
| 2026-05-05 09:18 | 25.01377 | -3.26481 | 34935 ft | 490 kts | 168° |
| 2026-05-05 09:18 | 24.95008 | -3.23905 | 34920 ft | 490 kts | 168° |
| 2026-05-05 09:19 | 24.88608 | -3.21319 | 34928 ft | 489 kts | 168° |
| 2026-05-05 09:19 | 24.82214 | -3.18738 | 34934 ft | 489 kts | 168° |
| 2026-05-05 09:20 | 24.75817 | -3.16160 | 34935 ft | 490 kts | 168° |
| 2026-05-05 09:20 | 24.69414 | -3.13581 | 34937 ft | 490 kts | 168° |
| 2026-05-05 09:21 | 24.63017 | -3.11008 | 34938 ft | 489 kts | 168° |
| 2026-05-05 09:21 | 24.56614 | -3.08436 | 34936 ft | 490 kts | 168° |
| 2026-05-05 09:22 | 24.50257 | -3.05884 | 34942 ft | 490 kts | 168° |
| 2026-05-05 09:22 | 24.43850 | -3.03315 | 34932 ft | 490 kts | 168° |
| 2026-05-05 09:23 | 24.37444 | -3.00750 | 34932 ft | 489 kts | 168° |
| 2026-05-05 09:23 | 24.31048 | -2.98191 | 34929 ft | 489 kts | 167° |
| 2026-05-05 09:24 | 24.24654 | -2.95636 | 34937 ft | 489 kts | 167° |
| 2026-05-05 09:24 | 24.18257 | -2.93083 | 34937 ft | 490 kts | 167° |
| 2026-05-05 09:25 | 24.11847 | -2.90527 | 34933 ft | 490 kts | 167° |
| 2026-05-05 09:25 | 24.05439 | -2.87973 | 34931 ft | 490 kts | 167° |
| 2026-05-05 09:26 | 23.99076 | -2.85441 | 34925 ft | 490 kts | 167° |
| 2026-05-05 09:26 | 23.92657 | -2.82890 | 34946 ft | 491 kts | 167° |
| 2026-05-05 09:27 | 23.86222 | -2.80335 | 34944 ft | 492 kts | 167° |
| 2026-05-05 09:27 | 23.79781 | -2.77780 | 34931 ft | 493 kts | 167° |
| 2026-05-05 09:28 | 23.73336 | -2.75224 | 34949 ft | 493 kts | 167° |
| 2026-05-05 09:28 | 23.66881 | -2.72669 | 34935 ft | 494 kts | 167° |
| 2026-05-05 09:29 | 23.60397 | -2.70145 | 34936 ft | 495 kts | 167° |
| 2026-05-05 09:29 | 23.53876 | -2.67662 | 34936 ft | 497 kts | 167° |
| 2026-05-05 09:30 | 23.47375 | -2.65190 | 34938 ft | 497 kts | 167° |
| 2026-05-05 09:30 | 23.40828 | -2.62692 | 34937 ft | 498 kts | 167° |
| 2026-05-05 09:31 | 23.34284 | -2.60194 | 34930 ft | 498 kts | 167° |
| 2026-05-05 09:31 | 23.27737 | -2.57698 | 34942 ft | 498 kts | 167° |
| 2026-05-05 09:32 | 23.21221 | -2.55216 | 34943 ft | 499 kts | 167° |
| 2026-05-05 09:32 | 23.14648 | -2.52717 | 35074 ft | 502 kts | 167° |
| 2026-05-05 09:32 | 23.11348 | -2.51463 | 35333 ft | 501 kts | 167° |
| 2026-05-05 09:33 | 23.08062 | -2.50213 | 35606 ft | 500 kts | 167° |
| 2026-05-05 09:33 | 23.04774 | -2.48964 | 35808 ft | 502 kts | 167° |
| 2026-05-05 09:33 | 23.01472 | -2.47711 | 36020 ft | 502 kts | 167° |
| 2026-05-05 09:33 | 22.98177 | -2.46461 | 36273 ft | 501 kts | 168° |
| 2026-05-05 09:34 | 22.94885 | -2.45213 | 36526 ft | 501 kts | 168° |
| 2026-05-05 09:34 | 22.91592 | -2.43965 | 36749 ft | 501 kts | 168° |
| 2026-05-05 09:34 | 22.88296 | -2.42717 | 36864 ft | 503 kts | 168° |
| 2026-05-05 09:35 | 22.81676 | -2.40213 | 36952 ft | 504 kts | 168° |
| 2026-05-05 09:35 | 22.71779 | -2.36469 | 36937 ft | 501 kts | 168° |
| 2026-05-05 09:36 | 22.65198 | -2.33985 | 36942 ft | 500 kts | 168° |
| 2026-05-05 09:36 | 22.58620 | -2.31506 | 36942 ft | 501 kts | 168° |
| 2026-05-05 09:37 | 22.52063 | -2.29037 | 36937 ft | 502 kts | 168° |
| 2026-05-05 09:37 | 22.45458 | -2.26551 | 36943 ft | 502 kts | 168° |
| 2026-05-05 09:38 | 22.38850 | -2.24066 | 36934 ft | 503 kts | 168° |
| 2026-05-05 09:38 | 22.32224 | -2.21578 | 36947 ft | 504 kts | 168° |
| 2026-05-05 09:39 | 22.25575 | -2.19084 | 36944 ft | 506 kts | 168° |
| 2026-05-05 09:39 | 22.18948 | -2.16599 | 36944 ft | 507 kts | 168° |
| 2026-05-05 09:40 | 22.12270 | -2.14097 | 36942 ft | 508 kts | 168° |
| 2026-05-05 09:40 | 22.05581 | -2.11594 | 36946 ft | 509 kts | 168° |
| 2026-05-05 09:41 | 21.98859 | -2.09089 | 36946 ft | 511 kts | 168° |
| 2026-05-05 09:41 | 21.92124 | -2.06582 | 36946 ft | 513 kts | 168° |
| 2026-05-05 09:42 | 21.85415 | -2.04085 | 36942 ft | 514 kts | 168° |
| 2026-05-05 09:42 | 21.78645 | -2.01566 | 36938 ft | 514 kts | 168° |
| 2026-05-05 09:43 | 21.71870 | -1.99048 | 36935 ft | 515 kts | 169° |
| 2026-05-05 09:43 | 21.65094 | -1.96533 | 36940 ft | 516 kts | 169° |
| 2026-05-05 09:44 | 21.58300 | -1.94015 | 36937 ft | 516 kts | 169° |
| 2026-05-05 09:44 | 21.51506 | -1.91498 | 36938 ft | 517 kts | 169° |
| 2026-05-05 09:45 | 21.44710 | -1.88982 | 36944 ft | 516 kts | 168° |
| 2026-05-05 09:45 | 21.37915 | -1.86469 | 36936 ft | 516 kts | 168° |
| 2026-05-05 09:46 | 21.31139 | -1.83965 | 36935 ft | 514 kts | 168° |
| 2026-05-05 09:46 | 21.24372 | -1.81469 | 36936 ft | 513 kts | 168° |
| 2026-05-05 09:47 | 21.17623 | -1.78981 | 36936 ft | 513 kts | 168° |
| 2026-05-05 09:47 | 21.10918 | -1.76512 | 36916 ft | 513 kts | 169° |
| 2026-05-05 09:48 | 21.04162 | -1.74028 | 36940 ft | 514 kts | 169° |
| 2026-05-05 09:48 | 20.97368 | -1.71532 | 36945 ft | 517 kts | 169° |
| 2026-05-05 09:49 | 20.90540 | -1.69025 | 36942 ft | 519 kts | 169° |
| 2026-05-05 09:49 | 20.83691 | -1.66512 | 36937 ft | 521 kts | 169° |
| 2026-05-05 09:50 | 20.76821 | -1.63993 | 36920 ft | 522 kts | 169° |
| 2026-05-05 09:50 | 20.69973 | -1.61485 | 36936 ft | 523 kts | 169° |
| 2026-05-05 09:51 | 20.63072 | -1.58960 | 36934 ft | 524 kts | 169° |
| 2026-05-05 09:51 | 20.56175 | -1.56439 | 36934 ft | 524 kts | 169° |
| 2026-05-05 09:52 | 20.49268 | -1.53917 | 36931 ft | 524 kts | 169° |
| 2026-05-05 09:52 | 20.43523 | -1.51821 | 36919 ft | 524 kts | 168° |
| 2026-05-05 09:53 | 20.35498 | -1.48896 | 36936 ft | 523 kts | 169° |
| 2026-05-05 09:53 | 20.29730 | -1.46795 | 36930 ft | 523 kts | 169° |
| 2026-05-05 09:54 | 20.22883 | -1.44304 | 36932 ft | 523 kts | 169° |
| 2026-05-05 09:54 | 20.15999 | -1.41802 | 36932 ft | 523 kts | 169° |
| 2026-05-05 09:55 | 20.09103 | -1.39296 | 36927 ft | 523 kts | 168° |
| 2026-05-05 09:55 | 20.02217 | -1.36795 | 36918 ft | 523 kts | 168° |
| 2026-05-05 09:56 | 19.95335 | -1.34297 | 36926 ft | 523 kts | 168° |
| 2026-05-05 09:56 | 19.88435 | -1.31796 | 36931 ft | 524 kts | 168° |
| 2026-05-05 09:57 | 19.81545 | -1.29300 | 36932 ft | 524 kts | 168° |
| 2026-05-05 09:57 | 19.74639 | -1.26801 | 36919 ft | 524 kts | 168° |
| 2026-05-05 09:58 | 19.67774 | -1.24319 | 36924 ft | 524 kts | 168° |
| 2026-05-05 09:58 | 19.60855 | -1.21820 | 36925 ft | 525 kts | 168° |
| 2026-05-05 09:59 | 19.53929 | -1.19320 | 36916 ft | 526 kts | 168° |
| 2026-05-05 09:59 | 19.46996 | -1.16821 | 36924 ft | 526 kts | 168° |
| 2026-05-05 10:00 | 19.40051 | -1.14319 | 36912 ft | 526 kts | 168° |
| 2026-05-05 10:00 | 19.33116 | -1.11823 | 36920 ft | 527 kts | 168° |
| 2026-05-05 10:01 | 19.26219 | -1.09343 | 36921 ft | 527 kts | 168° |
| 2026-05-05 10:01 | 19.19253 | -1.06840 | 36917 ft | 528 kts | 168° |
| 2026-05-05 10:02 | 19.12301 | -1.04345 | 36921 ft | 528 kts | 168° |
| 2026-05-05 10:02 | 19.05349 | -1.01852 | 36916 ft | 527 kts | 168° |
| 2026-05-05 10:03 | 18.98385 | -0.99356 | 36916 ft | 528 kts | 168° |
| 2026-05-05 10:03 | 18.91432 | -0.96867 | 36909 ft | 528 kts | 168° |
| 2026-05-05 10:04 | 18.84472 | -0.94377 | 36910 ft | 527 kts | 168° |
| 2026-05-05 10:04 | 18.77568 | -0.91909 | 36899 ft | 527 kts | 168° |
| 2026-05-05 10:05 | 18.70622 | -0.89428 | 36906 ft | 527 kts | 167° |
| 2026-05-05 10:05 | 18.63676 | -0.86950 | 36915 ft | 526 kts | 167° |
| 2026-05-05 10:06 | 18.56728 | -0.84477 | 36905 ft | 526 kts | 167° |
| 2026-05-05 10:06 | 18.49793 | -0.82012 | 36907 ft | 526 kts | 167° |
| 2026-05-05 10:07 | 18.42846 | -0.79543 | 36900 ft | 526 kts | 167° |
| 2026-05-05 10:07 | 18.35901 | -0.77077 | 36896 ft | 526 kts | 167° |
| 2026-05-05 10:08 | 18.28965 | -0.74615 | 36900 ft | 526 kts | 167° |
| 2026-05-05 10:08 | 18.22067 | -0.72169 | 36902 ft | 527 kts | 167° |
| 2026-05-05 10:09 | 18.15108 | -0.69704 | 36896 ft | 528 kts | 167° |
| 2026-05-05 10:09 | 18.08141 | -0.67238 | 36898 ft | 528 kts | 167° |
| 2026-05-05 10:10 | 18.01175 | -0.64774 | 36900 ft | 528 kts | 167° |
| 2026-05-05 10:10 | 17.94198 | -0.62308 | 36893 ft | 529 kts | 167° |
| 2026-05-05 10:11 | 17.87226 | -0.59846 | 36887 ft | 529 kts | 167° |
| 2026-05-05 10:11 | 17.80298 | -0.57402 | 36887 ft | 529 kts | 167° |
| 2026-05-05 10:12 | 17.73321 | -0.54942 | 36875 ft | 528 kts | 167° |
| 2026-05-05 10:12 | 17.66347 | -0.52486 | 36892 ft | 528 kts | 167° |
| 2026-05-05 10:13 | 17.59378 | -0.50033 | 36878 ft | 528 kts | 167° |
| 2026-05-05 10:13 | 17.52415 | -0.47585 | 36880 ft | 528 kts | 167° |
| 2026-05-05 10:14 | 17.45446 | -0.45136 | 36879 ft | 528 kts | 167° |
| 2026-05-05 10:14 | 17.38475 | -0.42689 | 36865 ft | 528 kts | 167° |
| 2026-05-05 10:15 | 17.31561 | -0.40263 | 36883 ft | 527 kts | 167° |
| 2026-05-05 10:15 | 17.24594 | -0.37822 | 36879 ft | 527 kts | 167° |
| 2026-05-05 10:16 | 17.17621 | -0.35379 | 36877 ft | 528 kts | 167° |
| 2026-05-05 10:16 | 17.10655 | -0.32941 | 36884 ft | 527 kts | 167° |
| 2026-05-05 10:17 | 17.03695 | -0.30508 | 36859 ft | 527 kts | 167° |
| 2026-05-05 10:17 | 16.96733 | -0.28075 | 36872 ft | 527 kts | 167° |
| 2026-05-05 10:18 | 16.89820 | -0.25661 | 36876 ft | 527 kts | 167° |
| 2026-05-05 10:18 | 16.82853 | -0.23231 | 36876 ft | 527 kts | 167° |
| 2026-05-05 10:19 | 16.75899 | -0.20806 | 36875 ft | 527 kts | 167° |
| 2026-05-05 10:19 | 16.68943 | -0.18383 | 36865 ft | 527 kts | 167° |
| 2026-05-05 10:20 | 16.61981 | -0.15960 | 36867 ft | 527 kts | 167° |
| 2026-05-05 10:20 | 16.55027 | -0.13541 | 36872 ft | 527 kts | 167° |
| 2026-05-05 10:21 | 16.48072 | -0.11124 | 36873 ft | 527 kts | 167° |
| 2026-05-05 10:21 | 16.41162 | -0.08724 | 36876 ft | 527 kts | 167° |
| 2026-05-05 10:22 | 16.34201 | -0.06308 | 36862 ft | 527 kts | 167° |
| 2026-05-05 10:22 | 16.27241 | -0.03894 | 36872 ft | 527 kts | 167° |
| 2026-05-05 10:23 | 16.20276 | -0.01548 | 36873 ft | 525 kts | 169° |
| 2026-05-05 10:23 | 16.13247 | 0.00462 | 36872 ft | 524 kts | 170° |
| 2026-05-05 10:24 | 16.06204 | 0.02414 | 36876 ft | 524 kts | 170° |
| 2026-05-05 10:24 | 15.99170 | 0.04421 | 36861 ft | 524 kts | 169° |
| 2026-05-05 10:25 | 15.92172 | 0.06449 | 36871 ft | 525 kts | 169° |
| 2026-05-05 10:25 | 15.85136 | 0.08489 | 36877 ft | 525 kts | 169° |
| 2026-05-05 10:26 | 15.78094 | 0.10524 | 36876 ft | 526 kts | 169° |
| 2026-05-05 10:26 | 15.71042 | 0.12559 | 36879 ft | 526 kts | 169° |
| 2026-05-05 10:27 | 15.63985 | 0.14594 | 36861 ft | 526 kts | 169° |
| 2026-05-05 10:27 | 15.56922 | 0.16630 | 36873 ft | 526 kts | 169° |
| 2026-05-05 10:28 | 15.49914 | 0.18648 | 36869 ft | 526 kts | 169° |
| 2026-05-05 10:28 | 15.42848 | 0.20681 | 36867 ft | 526 kts | 169° |
| 2026-05-05 10:29 | 15.35796 | 0.22709 | 36870 ft | 526 kts | 169° |
| 2026-05-05 10:29 | 15.28732 | 0.24740 | 36859 ft | 526 kts | 169° |
| 2026-05-05 10:30 | 15.21734 | 0.26751 | 36865 ft | 525 kts | 169° |
| 2026-05-05 10:30 | 15.14685 | 0.28775 | 36868 ft | 524 kts | 169° |
| 2026-05-05 10:31 | 15.07655 | 0.30792 | 36867 ft | 524 kts | 169° |
| 2026-05-05 10:31 | 15.00622 | 0.32808 | 36865 ft | 524 kts | 169° |
| 2026-05-05 10:32 | 14.93591 | 0.34823 | 36866 ft | 524 kts | 169° |
| 2026-05-05 10:32 | 14.86577 | 0.36831 | 36871 ft | 523 kts | 168° |
| 2026-05-05 10:33 | 14.79563 | 0.38838 | 36863 ft | 522 kts | 168° |
| 2026-05-05 10:33 | 14.72605 | 0.40828 | 36867 ft | 522 kts | 168° |
| 2026-05-05 10:34 | 14.65602 | 0.42829 | 36871 ft | 522 kts | 168° |
| 2026-05-05 10:34 | 14.58594 | 0.44829 | 36869 ft | 523 kts | 168° |
| 2026-05-05 10:35 | 14.51574 | 0.46833 | 36871 ft | 523 kts | 168° |
| 2026-05-05 10:35 | 14.44552 | 0.48835 | 36873 ft | 524 kts | 168° |
| 2026-05-05 10:36 | 14.37520 | 0.50839 | 36874 ft | 524 kts | 169° |
| 2026-05-05 10:36 | 14.30489 | 0.52842 | 36869 ft | 524 kts | 169° |
| 2026-05-05 10:37 | 14.23497 | 0.54832 | 36872 ft | 524 kts | 169° |
| 2026-05-05 10:37 | 14.16467 | 0.56832 | 36881 ft | 523 kts | 168° |
| 2026-05-05 10:38 | 14.09457 | 0.58825 | 36873 ft | 522 kts | 168° |
| 2026-05-05 10:38 | 14.02465 | 0.60812 | 36879 ft | 520 kts | 168° |
| 2026-05-05 10:39 | 13.95490 | 0.62792 | 36882 ft | 519 kts | 168° |
| 2026-05-05 10:39 | 13.88532 | 0.64766 | 36885 ft | 519 kts | 168° |
| 2026-05-05 10:40 | 13.81556 | 0.66745 | 36884 ft | 518 kts | 168° |
| 2026-05-05 10:40 | 13.74655 | 0.68696 | 36889 ft | 517 kts | 168° |
| 2026-05-05 10:41 | 13.67725 | 0.70648 | 36890 ft | 516 kts | 168° |
| 2026-05-05 10:41 | 13.60799 | 0.72598 | 36895 ft | 515 kts | 168° |
| 2026-05-05 10:42 | 13.50431 | 0.75517 | 36896 ft | 515 kts | 168° |
| 2026-05-05 10:43 | 13.44689 | 0.77133 | 36894 ft | 514 kts | 167° |
| 2026-05-05 10:43 | 13.37782 | 0.79076 | 36903 ft | 514 kts | 167° |
| 2026-05-05 10:44 | 13.29754 | 0.81341 | 36905 ft | 515 kts | 167° |
| 2026-05-05 10:44 | 13.23968 | 0.82976 | 36906 ft | 515 kts | 167° |
| 2026-05-05 10:45 | 13.17041 | 0.84933 | 36918 ft | 516 kts | 167° |
| 2026-05-05 10:45 | 13.10167 | 0.86872 | 36908 ft | 516 kts | 167° |
| 2026-05-05 10:46 | 13.03249 | 0.88820 | 36921 ft | 515 kts | 167° |
| 2026-05-05 10:46 | 12.96338 | 0.90759 | 36917 ft | 514 kts | 167° |
| 2026-05-05 10:47 | 12.89439 | 0.92694 | 36918 ft | 513 kts | 167° |
| 2026-05-05 10:47 | 12.82547 | 0.94627 | 36921 ft | 513 kts | 167° |
| 2026-05-05 10:48 | 12.75663 | 0.96557 | 36928 ft | 512 kts | 166° |
| 2026-05-05 10:48 | 12.68830 | 0.98472 | 36926 ft | 511 kts | 166° |
| 2026-05-05 10:49 | 12.61971 | 1.00393 | 36921 ft | 510 kts | 166° |
| 2026-05-05 10:49 | 12.55129 | 1.02308 | 36922 ft | 509 kts | 166° |
| 2026-05-05 10:50 | 12.48295 | 1.04220 | 36921 ft | 509 kts | 166° |
| 2026-05-05 10:50 | 12.41466 | 1.06129 | 36923 ft | 508 kts | 166° |
| 2026-05-05 10:51 | 12.34677 | 1.08026 | 36931 ft | 508 kts | 166° |
| 2026-05-05 10:51 | 12.27863 | 1.09930 | 36924 ft | 507 kts | 166° |
| 2026-05-05 10:52 | 12.21049 | 1.11832 | 36924 ft | 507 kts | 166° |
| 2026-05-05 10:52 | 12.14247 | 1.13731 | 36918 ft | 507 kts | 166° |
| 2026-05-05 10:53 | 12.07438 | 1.15630 | 36912 ft | 507 kts | 166° |
| 2026-05-05 10:53 | 12.00629 | 1.17528 | 36922 ft | 507 kts | 166° |
| 2026-05-05 10:54 | 11.93812 | 1.19429 | 36919 ft | 507 kts | 166° |
| 2026-05-05 10:54 | 11.86993 | 1.21330 | 36910 ft | 508 kts | 166° |
| 2026-05-05 10:55 | 11.80178 | 1.23229 | 36915 ft | 507 kts | 166° |
| 2026-05-05 10:55 | 11.73403 | 1.25116 | 36906 ft | 507 kts | 166° |
| 2026-05-05 10:56 | 11.66588 | 1.27013 | 36905 ft | 507 kts | 166° |
| 2026-05-05 10:56 | 11.59782 | 1.28906 | 36908 ft | 507 kts | 166° |
| 2026-05-05 10:57 | 11.52979 | 1.30798 | 36905 ft | 507 kts | 166° |
| 2026-05-05 10:57 | 11.46184 | 1.32687 | 36909 ft | 506 kts | 166° |
| 2026-05-05 10:58 | 11.39376 | 1.34578 | 36905 ft | 506 kts | 166° |
| 2026-05-05 10:58 | 11.32575 | 1.36466 | 36908 ft | 506 kts | 166° |
| 2026-05-05 10:59 | 11.25821 | 1.38340 | 36908 ft | 506 kts | 165° |
| 2026-05-05 10:59 | 11.19022 | 1.40226 | 36904 ft | 507 kts | 165° |
| 2026-05-05 11:00 | 11.12219 | 1.42113 | 36905 ft | 507 kts | 165° |
| 2026-05-05 11:00 | 11.05405 | 1.44002 | 36910 ft | 507 kts | 165° |
| 2026-05-05 11:01 | 10.98591 | 1.45895 | 36907 ft | 507 kts | 165° |
| 2026-05-05 11:01 | 10.91804 | 1.47903 | 36907 ft | 507 kts | 164° |
| 2026-05-05 11:02 | 10.85084 | 1.49944 | 36914 ft | 507 kts | 164° |
| 2026-05-05 11:02 | 10.78311 | 1.51988 | 36908 ft | 507 kts | 164° |
| 2026-05-05 11:03 | 10.71534 | 1.54018 | 36909 ft | 508 kts | 164° |
| 2026-05-05 11:03 | 10.64744 | 1.56045 | 36911 ft | 508 kts | 164° |
| 2026-05-05 11:04 | 10.57997 | 1.58059 | 36915 ft | 508 kts | 164° |
| 2026-05-05 11:04 | 10.51208 | 1.60085 | 36914 ft | 508 kts | 164° |
| 2026-05-05 11:05 | 10.44413 | 1.62114 | 36923 ft | 508 kts | 164° |
| 2026-05-05 11:05 | 10.37621 | 1.64141 | 36918 ft | 508 kts | 164° |
| 2026-05-05 11:06 | 10.30831 | 1.66165 | 36923 ft | 508 kts | 164° |
| 2026-05-05 11:06 | 10.24044 | 1.68188 | 36915 ft | 508 kts | 164° |
| 2026-05-05 11:07 | 10.17304 | 1.70196 | 36923 ft | 507 kts | 163° |
| 2026-05-05 11:07 | 10.10531 | 1.72213 | 36916 ft | 506 kts | 163° |
| 2026-05-05 11:08 | 10.03775 | 1.74224 | 36918 ft | 505 kts | 163° |
| 2026-05-05 11:08 | 9.97023 | 1.76233 | 36918 ft | 504 kts | 163° |
| 2026-05-05 11:09 | 9.90292 | 1.78235 | 36915 ft | 504 kts | 163° |
| 2026-05-05 11:09 | 9.83560 | 1.80236 | 36919 ft | 503 kts | 163° |
| 2026-05-05 11:10 | 9.76872 | 1.82223 | 36920 ft | 504 kts | 163° |
| 2026-05-05 11:10 | 9.70139 | 1.84224 | 36920 ft | 504 kts | 163° |
| 2026-05-05 11:11 | 9.63399 | 1.86225 | 36921 ft | 504 kts | 163° |
| 2026-05-05 11:11 | 9.56657 | 1.88226 | 36913 ft | 505 kts | 163° |
| 2026-05-05 11:12 | 9.49954 | 1.90215 | 36918 ft | 505 kts | 163° |
| 2026-05-05 11:12 | 9.43205 | 1.92196 | 36914 ft | 505 kts | 164° |
| 2026-05-05 11:13 | 9.36430 | 1.94080 | 36922 ft | 505 kts | 164° |
| 2026-05-05 11:13 | 9.29639 | 1.95948 | 36918 ft | 505 kts | 164° |
| 2026-05-05 11:14 | 9.22867 | 1.97823 | 36919 ft | 504 kts | 164° |
| 2026-05-05 11:14 | 9.16099 | 1.99706 | 36915 ft | 504 kts | 164° |
| 2026-05-05 11:15 | 9.09335 | 2.01589 | 36922 ft | 504 kts | 164° |
| 2026-05-05 11:15 | 9.02618 | 2.03459 | 36928 ft | 503 kts | 164° |
| 2026-05-05 11:16 | 8.95872 | 2.05334 | 36914 ft | 503 kts | 164° |
| 2026-05-05 11:16 | 8.89128 | 2.07208 | 36924 ft | 502 kts | 164° |
| 2026-05-05 11:17 | 8.82392 | 2.09079 | 36918 ft | 501 kts | 164° |
| 2026-05-05 11:17 | 8.75699 | 2.10937 | 36920 ft | 501 kts | 164° |
| 2026-05-05 11:18 | 8.68972 | 2.12805 | 36928 ft | 501 kts | 164° |
| 2026-05-05 11:18 | 8.62238 | 2.14673 | 36928 ft | 500 kts | 164° |
| 2026-05-05 11:19 | 8.55521 | 2.16536 | 36917 ft | 500 kts | 164° |
| 2026-05-05 11:19 | 8.48842 | 2.18388 | 36928 ft | 500 kts | 164° |
| 2026-05-05 11:20 | 8.42126 | 2.20250 | 36928 ft | 500 kts | 164° |
| 2026-05-05 11:20 | 8.35406 | 2.22112 | 36924 ft | 501 kts | 164° |
| 2026-05-05 11:21 | 8.28686 | 2.23973 | 36932 ft | 501 kts | 164° |
| 2026-05-05 11:21 | 8.21965 | 2.25834 | 36929 ft | 500 kts | 164° |
| 2026-05-05 11:22 | 8.15254 | 2.27691 | 36916 ft | 500 kts | 164° |
| 2026-05-05 11:22 | 8.08542 | 2.29549 | 36935 ft | 499 kts | 164° |
| 2026-05-05 11:23 | 8.01848 | 2.31401 | 36933 ft | 499 kts | 164° |
| 2026-05-05 11:23 | 7.95146 | 2.33254 | 36928 ft | 499 kts | 164° |
| 2026-05-05 11:24 | 7.88439 | 2.35059 | 36925 ft | 499 kts | 168° |
| 2026-05-05 11:24 | 7.81592 | 2.35924 | 36923 ft | 500 kts | 178° |
| 2026-05-05 11:25 | 7.74646 | 2.36041 | 36928 ft | 500 kts | 179° |
| 2026-05-05 11:25 | 7.67683 | 2.36147 | 36939 ft | 500 kts | 179° |
| 2026-05-05 11:26 | 7.60723 | 2.36292 | 36927 ft | 501 kts | 178° |
| 2026-05-05 11:26 | 7.53747 | 2.36456 | 36940 ft | 500 kts | 178° |
| 2026-05-05 11:27 | 7.46796 | 2.36621 | 36927 ft | 499 kts | 178° |
| 2026-05-05 11:27 | 7.39860 | 2.36784 | 36933 ft | 497 kts | 178° |
| 2026-05-05 11:28 | 7.32948 | 2.36945 | 36921 ft | 496 kts | 178° |
| 2026-05-05 11:28 | 7.26081 | 2.37105 | 36929 ft | 496 kts | 178° |
| 2026-05-05 11:29 | 7.19185 | 2.37266 | 36933 ft | 495 kts | 178° |
| 2026-05-05 11:29 | 7.12286 | 2.37427 | 36935 ft | 495 kts | 178° |
| 2026-05-05 11:30 | 7.05383 | 2.37588 | 36934 ft | 496 kts | 178° |
| 2026-05-05 11:30 | 6.98478 | 2.37749 | 36932 ft | 497 kts | 178° |
| 2026-05-05 11:31 | 6.91555 | 2.37910 | 36930 ft | 497 kts | 178° |
| 2026-05-05 11:31 | 6.84677 | 2.38070 | 36929 ft | 497 kts | 178° |
| 2026-05-05 11:32 | 6.77771 | 2.38231 | 36939 ft | 497 kts | 178° |
| 2026-05-05 11:32 | 6.70846 | 2.38407 | 36930 ft | 497 kts | 178° |
| 2026-05-05 11:33 | 6.65100 | 2.38558 | 36937 ft | 496 kts | 178° |
| 2026-05-05 11:33 | 6.58201 | 2.38736 | 36935 ft | 496 kts | 178° |
| 2026-05-05 11:34 | 6.51306 | 2.38913 | 36948 ft | 495 kts | 178° |
| 2026-05-05 11:34 | 6.44419 | 2.39089 | 36952 ft | 495 kts | 178° |
| 2026-05-05 11:35 | 6.37539 | 2.39366 | 36949 ft | 494 kts | 174° |
| 2026-05-05 11:35 | 6.30795 | 2.40682 | 36950 ft | 493 kts | 164° |
| 2026-05-05 11:36 | 6.24198 | 2.42586 | 36949 ft | 494 kts | 163° |
| 2026-05-05 11:36 | 6.17583 | 2.44451 | 36948 ft | 494 kts | 164° |
| 2026-05-05 11:37 | 6.10993 | 2.46267 | 36953 ft | 494 kts | 164° |
| 2026-05-05 11:37 | 6.04355 | 2.48066 | 36938 ft | 494 kts | 165° |
| 2026-05-05 11:38 | 5.97696 | 2.49861 | 36946 ft | 495 kts | 165° |
| 2026-05-05 11:38 | 5.91046 | 2.51659 | 36943 ft | 495 kts | 165° |
| 2026-05-05 11:39 | 5.84398 | 2.53470 | 36939 ft | 495 kts | 165° |
| 2026-05-05 11:39 | 5.77748 | 2.55291 | 36941 ft | 495 kts | 165° |
| 2026-05-05 11:40 | 5.71092 | 2.57114 | 36947 ft | 495 kts | 165° |
| 2026-05-05 11:40 | 5.64439 | 2.58933 | 36940 ft | 496 kts | 165° |
| 2026-05-05 11:41 | 5.57819 | 2.60742 | 36944 ft | 496 kts | 165° |
| 2026-05-05 11:41 | 5.51151 | 2.62564 | 36941 ft | 496 kts | 165° |
| 2026-05-05 11:42 | 5.44482 | 2.64385 | 36938 ft | 496 kts | 165° |
| 2026-05-05 11:42 | 5.37811 | 2.66207 | 36944 ft | 496 kts | 165° |
| 2026-05-05 11:43 | 5.31147 | 2.68027 | 36943 ft | 496 kts | 165° |
| 2026-05-05 11:43 | 5.24479 | 2.69847 | 36941 ft | 496 kts | 165° |
| 2026-05-05 11:44 | 5.17850 | 2.71656 | 36942 ft | 496 kts | 165° |
| 2026-05-05 11:44 | 5.11199 | 2.73471 | 36942 ft | 495 kts | 165° |
| 2026-05-05 11:45 | 5.04547 | 2.75286 | 36939 ft | 495 kts | 165° |
| 2026-05-05 11:45 | 4.97904 | 2.77098 | 36943 ft | 495 kts | 165° |
| 2026-05-05 11:46 | 4.91261 | 2.78910 | 36941 ft | 495 kts | 165° |
| 2026-05-05 11:46 | 4.84611 | 2.80723 | 36943 ft | 495 kts | 165° |
| 2026-05-05 11:47 | 4.78003 | 2.82527 | 36946 ft | 495 kts | 165° |
| 2026-05-05 11:47 | 4.71353 | 2.84342 | 36946 ft | 495 kts | 165° |
| 2026-05-05 11:48 | 4.61368 | 2.87067 | 36946 ft | 496 kts | 165° |
| 2026-05-05 11:48 | 4.54714 | 2.88883 | 36950 ft | 496 kts | 165° |
| 2026-05-05 11:49 | 4.48055 | 2.90699 | 36948 ft | 495 kts | 165° |
| 2026-05-05 11:49 | 4.41386 | 2.92518 | 36946 ft | 495 kts | 165° |
| 2026-05-05 11:50 | 4.34778 | 2.94320 | 36950 ft | 495 kts | 165° |
| 2026-05-05 11:50 | 4.28121 | 2.96135 | 36950 ft | 495 kts | 165° |
| 2026-05-05 11:51 | 4.21474 | 2.97947 | 36948 ft | 495 kts | 165° |
| 2026-05-05 11:51 | 4.14835 | 2.99757 | 36949 ft | 495 kts | 165° |
| 2026-05-05 11:52 | 4.08196 | 3.01566 | 36954 ft | 495 kts | 165° |
| 2026-05-05 11:52 | 4.01656 | 3.03682 | 36947 ft | 495 kts | 155° |
| 2026-05-05 11:53 | 3.95712 | 3.07138 | 36948 ft | 495 kts | 142° |
| 2026-05-05 11:53 | 3.90347 | 3.11482 | 36957 ft | 496 kts | 140° |
| 2026-05-05 11:54 | 3.85049 | 3.15865 | 36955 ft | 498 kts | 140° |
| 2026-05-05 11:54 | 3.79685 | 3.20257 | 36961 ft | 498 kts | 141° |
| 2026-05-05 11:55 | 3.74299 | 3.24629 | 36952 ft | 499 kts | 141° |
| 2026-05-05 11:55 | 3.68902 | 3.28997 | 36957 ft | 499 kts | 141° |
| 2026-05-05 11:56 | 3.63503 | 3.33365 | 36955 ft | 498 kts | 141° |
| 2026-05-05 11:56 | 3.58107 | 3.37735 | 36946 ft | 498 kts | 141° |
| 2026-05-05 11:57 | 3.52722 | 3.42095 | 36956 ft | 498 kts | 141° |
| 2026-05-05 11:57 | 3.47335 | 3.46455 | 36963 ft | 497 kts | 141° |
| 2026-05-05 11:58 | 3.41961 | 3.50806 | 36951 ft | 497 kts | 141° |
| 2026-05-05 11:58 | 3.36618 | 3.55130 | 36953 ft | 497 kts | 141° |
| 2026-05-05 11:59 | 3.31230 | 3.59490 | 36956 ft | 498 kts | 141° |
| 2026-05-05 11:59 | 3.25840 | 3.63850 | 36957 ft | 499 kts | 141° |
| 2026-05-05 12:00 | 3.20430 | 3.68226 | 36964 ft | 499 kts | 141° |
| 2026-05-05 12:00 | 3.15027 | 3.72596 | 36958 ft | 499 kts | 141° |
| 2026-05-05 12:01 | 3.09663 | 3.76935 | 36955 ft | 498 kts | 141° |
| 2026-05-05 12:01 | 3.04271 | 3.81295 | 36952 ft | 498 kts | 141° |
| 2026-05-05 12:02 | 2.98875 | 3.85657 | 36947 ft | 498 kts | 141° |
| 2026-05-05 12:02 | 2.93485 | 3.90014 | 36950 ft | 498 kts | 141° |
| 2026-05-05 12:03 | 2.88087 | 3.94378 | 36952 ft | 498 kts | 141° |
| 2026-05-05 12:03 | 2.82696 | 3.98735 | 36954 ft | 498 kts | 141° |
| 2026-05-05 12:04 | 2.77303 | 4.03093 | 36953 ft | 498 kts | 141° |
| 2026-05-05 12:04 | 2.71938 | 4.07428 | 36948 ft | 498 kts | 141° |
| 2026-05-05 12:05 | 2.66537 | 4.11791 | 36958 ft | 499 kts | 141° |
| 2026-05-05 12:05 | 2.61137 | 4.16154 | 36953 ft | 498 kts | 141° |
| 2026-05-05 12:06 | 2.55738 | 4.20515 | 36944 ft | 499 kts | 140° |
| 2026-05-05 12:06 | 2.50334 | 4.24878 | 36953 ft | 500 kts | 140° |
| 2026-05-05 12:07 | 2.44953 | 4.29224 | 36943 ft | 501 kts | 140° |
| 2026-05-05 12:07 | 2.39524 | 4.33608 | 36948 ft | 502 kts | 140° |
| 2026-05-05 12:08 | 2.34087 | 4.37998 | 36948 ft | 502 kts | 141° |
| 2026-05-05 12:08 | 2.28645 | 4.42391 | 36942 ft | 502 kts | 141° |
| 2026-05-05 12:09 | 2.23230 | 4.46762 | 36941 ft | 502 kts | 140° |
| 2026-05-05 12:09 | 2.17798 | 4.51146 | 36944 ft | 502 kts | 140° |
| 2026-05-05 12:10 | 2.12371 | 4.55526 | 36940 ft | 501 kts | 140° |
| 2026-05-05 12:10 | 2.06949 | 4.59901 | 36941 ft | 501 kts | 140° |
| 2026-05-05 12:11 | 2.01522 | 4.64280 | 36940 ft | 500 kts | 140° |
| 2026-05-05 12:11 | 1.96138 | 4.68624 | 36940 ft | 500 kts | 140° |
| 2026-05-05 12:12 | 1.90719 | 4.72997 | 36940 ft | 500 kts | 140° |
| 2026-05-05 12:12 | 1.85306 | 4.77363 | 36943 ft | 500 kts | 140° |
| 2026-05-05 12:13 | 1.79892 | 4.81731 | 36937 ft | 500 kts | 140° |
| 2026-05-05 12:13 | 1.74486 | 4.86091 | 36935 ft | 499 kts | 140° |
| 2026-05-05 12:14 | 1.69085 | 4.90446 | 36938 ft | 499 kts | 140° |
| 2026-05-05 12:14 | 1.63683 | 4.94803 | 36937 ft | 498 kts | 140° |
| 2026-05-05 12:15 | 1.58275 | 4.99164 | 36935 ft | 499 kts | 140° |
| 2026-05-05 12:15 | 1.52872 | 5.03520 | 36939 ft | 499 kts | 140° |
| 2026-05-05 12:16 | 1.47468 | 5.07878 | 36941 ft | 500 kts | 140° |
| 2026-05-05 12:16 | 1.42050 | 5.12246 | 36936 ft | 500 kts | 140° |
| 2026-05-05 12:17 | 1.36662 | 5.16590 | 36934 ft | 500 kts | 140° |
| 2026-05-05 12:17 | 1.31245 | 5.20957 | 36935 ft | 501 kts | 140° |
| 2026-05-05 12:18 | 1.25811 | 5.25337 | 36931 ft | 501 kts | 140° |
| 2026-05-05 12:18 | 1.20387 | 5.29710 | 36934 ft | 500 kts | 140° |
| 2026-05-05 12:19 | 1.14975 | 5.34072 | 36935 ft | 500 kts | 140° |
| 2026-05-05 12:19 | 1.09555 | 5.38441 | 36929 ft | 499 kts | 140° |
| 2026-05-05 12:20 | 1.04182 | 5.42773 | 36930 ft | 499 kts | 140° |
| 2026-05-05 12:20 | 0.98781 | 5.47126 | 36944 ft | 499 kts | 140° |
| 2026-05-05 12:21 | 0.94019 | 5.52137 | 36935 ft | 496 kts | 124° |
| 2026-05-05 12:21 | 0.90590 | 5.58094 | 36936 ft | 495 kts | 113° |
| 2026-05-05 12:22 | 0.88221 | 5.63304 | 36935 ft | 495 kts | 113° |
| 2026-05-05 12:22 | 0.85386 | 5.69563 | 36929 ft | 495 kts | 113° |
| 2026-05-05 12:23 | 0.82503 | 5.75820 | 36929 ft | 495 kts | 114° |
| 2026-05-05 12:23 | 0.79595 | 5.82069 | 36933 ft | 496 kts | 114° |
| 2026-05-05 12:24 | 0.76696 | 5.88286 | 36924 ft | 496 kts | 114° |
| 2026-05-05 12:24 | 0.73786 | 5.94532 | 36919 ft | 497 kts | 114° |
| 2026-05-05 12:25 | 0.70865 | 6.00808 | 36927 ft | 498 kts | 114° |
| 2026-05-05 12:25 | 0.67944 | 6.07084 | 36924 ft | 499 kts | 114° |
| 2026-05-05 12:26 | 0.65015 | 6.13375 | 36924 ft | 499 kts | 114° |
| 2026-05-05 12:26 | 0.62084 | 6.19671 | 36924 ft | 499 kts | 114° |
| 2026-05-05 12:27 | 0.59155 | 6.25962 | 36928 ft | 499 kts | 114° |
| 2026-05-05 12:27 | 0.56243 | 6.32216 | 36929 ft | 499 kts | 114° |
| 2026-05-05 12:28 | 0.53314 | 6.38506 | 36930 ft | 499 kts | 114° |
| 2026-05-05 12:28 | 0.50384 | 6.44799 | 36933 ft | 499 kts | 114° |
| 2026-05-05 12:29 | 0.47458 | 6.51084 | 36940 ft | 498 kts | 114° |
| 2026-05-05 12:29 | 0.44534 | 6.57364 | 36940 ft | 499 kts | 114° |
| 2026-05-05 12:30 | 0.41592 | 6.63640 | 36938 ft | 499 kts | 114° |
| 2026-05-05 12:30 | 0.38335 | 6.69755 | 36928 ft | 500 kts | 125° |
| 2026-05-05 12:31 | 0.33590 | 6.74815 | 36938 ft | 500 kts | 142° |
| 2026-05-05 12:31 | 0.27948 | 6.78800 | 36938 ft | 500 kts | 146° |
| 2026-05-05 12:32 | 0.22200 | 6.82734 | 36936 ft | 500 kts | 145° |
| 2026-05-05 12:32 | 0.16486 | 6.86713 | 36923 ft | 501 kts | 145° |
| 2026-05-05 12:33 | 0.10784 | 6.90731 | 36922 ft | 501 kts | 145° |
| 2026-05-05 12:33 | 0.05083 | 6.94756 | 36923 ft | 502 kts | 145° |
| 2026-05-05 12:34 | -0.00632 | 6.98789 | 36920 ft | 503 kts | 145° |
| 2026-05-05 12:34 | -0.06345 | 7.02817 | 36915 ft | 503 kts | 145° |
| 2026-05-05 12:35 | -0.12027 | 7.06823 | 36917 ft | 503 kts | 145° |
| 2026-05-05 12:35 | -0.17743 | 7.10853 | 36916 ft | 503 kts | 145° |
| 2026-05-05 12:36 | -0.23465 | 7.14887 | 36910 ft | 503 kts | 145° |
| 2026-05-05 12:36 | -0.29184 | 7.18919 | 36913 ft | 503 kts | 145° |
| 2026-05-05 12:37 | -0.34901 | 7.22951 | 36913 ft | 502 kts | 145° |
| 2026-05-05 12:37 | -0.40615 | 7.26981 | 36911 ft | 502 kts | 145° |
| 2026-05-05 12:38 | -0.46283 | 7.30985 | 36913 ft | 502 kts | 144° |
| 2026-05-05 12:38 | -0.51977 | 7.35024 | 36914 ft | 501 kts | 144° |
| 2026-05-05 12:39 | -0.57666 | 7.39059 | 36911 ft | 501 kts | 144° |
| 2026-05-05 12:39 | -0.63346 | 7.43087 | 36912 ft | 501 kts | 144° |
| 2026-05-05 12:40 | -0.69034 | 7.47120 | 36910 ft | 500 kts | 144° |
| 2026-05-05 12:40 | -0.74691 | 7.51105 | 36908 ft | 500 kts | 145° |
| 2026-05-05 12:41 | -0.80415 | 7.55073 | 36912 ft | 500 kts | 145° |
| 2026-05-05 12:41 | -0.86110 | 7.59057 | 36908 ft | 500 kts | 144° |
| 2026-05-05 12:42 | -0.91803 | 7.63075 | 36908 ft | 500 kts | 144° |
| 2026-05-05 12:42 | -0.97490 | 7.67083 | 36908 ft | 500 kts | 144° |
| 2026-05-05 12:43 | -1.03173 | 7.71084 | 36912 ft | 500 kts | 144° |
| 2026-05-05 12:43 | -1.08814 | 7.75075 | 36908 ft | 500 kts | 144° |
| 2026-05-05 12:44 | -1.14476 | 7.79090 | 36907 ft | 499 kts | 144° |
| 2026-05-05 12:44 | -1.20148 | 7.83111 | 36906 ft | 500 kts | 144° |
| 2026-05-05 12:45 | -1.25822 | 7.87132 | 36911 ft | 500 kts | 144° |
| 2026-05-05 12:45 | -1.31492 | 7.91150 | 36909 ft | 500 kts | 144° |
| 2026-05-05 12:46 | -1.37170 | 7.95167 | 36907 ft | 500 kts | 144° |
| 2026-05-05 12:46 | -1.42865 | 7.99174 | 36907 ft | 500 kts | 144° |
| 2026-05-05 12:47 | -1.48547 | 8.03172 | 36908 ft | 500 kts | 144° |
| 2026-05-05 12:47 | -1.54200 | 8.07154 | 36913 ft | 499 kts | 144° |
| 2026-05-05 12:48 | -1.59876 | 8.11154 | 36902 ft | 498 kts | 144° |
| 2026-05-05 12:48 | -1.65538 | 8.15144 | 36904 ft | 498 kts | 144° |
| 2026-05-05 12:49 | -1.71186 | 8.19124 | 36907 ft | 497 kts | 144° |
| 2026-05-05 12:49 | -1.76839 | 8.23107 | 36907 ft | 496 kts | 144° |
| 2026-05-05 12:50 | -1.82482 | 8.27084 | 36907 ft | 496 kts | 144° |
| 2026-05-05 12:50 | -1.88134 | 8.31069 | 36906 ft | 496 kts | 144° |
| 2026-05-05 12:51 | -1.93767 | 8.35041 | 36909 ft | 496 kts | 144° |
| 2026-05-05 12:51 | -1.99402 | 8.39016 | 36902 ft | 495 kts | 144° |
| 2026-05-05 12:52 | -2.04998 | 8.42963 | 36904 ft | 494 kts | 144° |
| 2026-05-05 12:52 | -2.10621 | 8.46929 | 36904 ft | 494 kts | 144° |
| 2026-05-05 12:53 | -2.16243 | 8.50896 | 36907 ft | 494 kts | 144° |
| 2026-05-05 12:53 | -2.21858 | 8.54861 | 36907 ft | 494 kts | 144° |
| 2026-05-05 12:54 | -2.30272 | 8.60803 | 36914 ft | 493 kts | 144° |
| 2026-05-05 12:55 | -2.35877 | 8.64763 | 36905 ft | 493 kts | 144° |
| 2026-05-05 12:55 | -2.41451 | 8.68700 | 36907 ft | 493 kts | 144° |
| 2026-05-05 12:56 | -2.47052 | 8.72657 | 36907 ft | 492 kts | 144° |
| 2026-05-05 12:56 | -2.52648 | 8.76611 | 36907 ft | 493 kts | 144° |
| 2026-05-05 12:57 | -2.58255 | 8.80573 | 36907 ft | 493 kts | 144° |
| 2026-05-05 12:57 | -2.63855 | 8.84531 | 36907 ft | 493 kts | 144° |
| 2026-05-05 12:58 | -2.69455 | 8.88489 | 36908 ft | 493 kts | 144° |
| 2026-05-05 12:58 | -2.75057 | 8.92450 | 36906 ft | 493 kts | 144° |
| 2026-05-05 12:59 | -2.80651 | 8.96405 | 36904 ft | 492 kts | 144° |
| 2026-05-05 12:59 | -2.86244 | 9.00356 | 36904 ft | 492 kts | 144° |
| 2026-05-05 13:00 | -2.94594 | 9.06256 | 36903 ft | 492 kts | 144° |
| 2026-05-05 13:01 | -3.05782 | 9.14167 | 36910 ft | 492 kts | 144° |
| 2026-05-05 13:01 | -3.11390 | 9.18131 | 36904 ft | 493 kts | 144° |
| 2026-05-05 13:02 | -3.16958 | 9.22068 | 36905 ft | 493 kts | 144° |
| 2026-05-05 13:02 | -3.22559 | 9.26033 | 36904 ft | 493 kts | 144° |
| 2026-05-05 13:03 | -3.28175 | 9.30007 | 36905 ft | 494 kts | 144° |
| 2026-05-05 13:03 | -3.33783 | 9.33976 | 36903 ft | 494 kts | 144° |
| 2026-05-05 13:04 | -3.39367 | 9.37928 | 36903 ft | 494 kts | 144° |
| 2026-05-05 13:04 | -3.44982 | 9.41907 | 36901 ft | 493 kts | 144° |
| 2026-05-05 13:05 | -3.50584 | 9.45878 | 36900 ft | 493 kts | 144° |
| 2026-05-05 13:05 | -3.56185 | 9.49849 | 36896 ft | 493 kts | 144° |
| 2026-05-05 13:06 | -3.61755 | 9.53799 | 36907 ft | 494 kts | 144° |
| 2026-05-05 13:06 | -3.67372 | 9.57784 | 36905 ft | 495 kts | 144° |
| 2026-05-05 13:07 | -3.73001 | 9.61779 | 36906 ft | 495 kts | 144° |
| 2026-05-05 13:07 | -3.78625 | 9.65767 | 36905 ft | 495 kts | 144° |
| 2026-05-05 13:08 | -3.84244 | 9.69753 | 36899 ft | 495 kts | 144° |
| 2026-05-05 13:08 | -3.89860 | 9.73737 | 36902 ft | 495 kts | 144° |
| 2026-05-05 13:09 | -3.95480 | 9.77719 | 36901 ft | 494 kts | 144° |
| 2026-05-05 13:09 | -4.01059 | 9.81674 | 36900 ft | 494 kts | 144° |
| 2026-05-05 13:10 | -4.06669 | 9.85654 | 36892 ft | 494 kts | 144° |
| 2026-05-05 13:10 | -4.12287 | 9.89640 | 36905 ft | 495 kts | 144° |
| 2026-05-05 13:11 | -4.17923 | 9.93640 | 36904 ft | 497 kts | 144° |
| 2026-05-05 13:11 | -4.23567 | 9.97646 | 36902 ft | 498 kts | 144° |
| 2026-05-05 13:12 | -4.28272 | 10.00985 | 36907 ft | 498 kts | 144° |
| 2026-05-05 13:12 | -4.33926 | 10.04992 | 36902 ft | 498 kts | 144° |
| 2026-05-05 13:13 | -4.39576 | 10.09000 | 36904 ft | 497 kts | 144° |
| 2026-05-05 13:13 | -4.45216 | 10.13003 | 36903 ft | 496 kts | 144° |
| 2026-05-05 13:14 | -4.50854 | 10.17005 | 36904 ft | 495 kts | 144° |
| 2026-05-05 13:14 | -4.56469 | 10.20996 | 36903 ft | 494 kts | 144° |
| 2026-05-05 13:15 | -4.62051 | 10.24957 | 36899 ft | 494 kts | 144° |
| 2026-05-05 13:15 | -4.67666 | 10.28956 | 36910 ft | 495 kts | 144° |
| 2026-05-05 13:16 | -4.73276 | 10.32962 | 36902 ft | 495 kts | 144° |
| 2026-05-05 13:16 | -4.78899 | 10.36980 | 36901 ft | 495 kts | 144° |
| 2026-05-05 13:17 | -4.84521 | 10.40998 | 36907 ft | 495 kts | 144° |
| 2026-05-05 13:17 | -4.90099 | 10.44973 | 36918 ft | 495 kts | 144° |
| 2026-05-05 13:18 | -4.95715 | 10.48952 | 36900 ft | 494 kts | 144° |
| 2026-05-05 13:18 | -5.01317 | 10.52923 | 36902 ft | 492 kts | 144° |
| 2026-05-05 13:19 | -5.06903 | 10.56889 | 36908 ft | 491 kts | 144° |
| 2026-05-05 13:19 | -5.12488 | 10.60854 | 36898 ft | 492 kts | 144° |
| 2026-05-05 13:20 | -5.18086 | 10.64832 | 36904 ft | 493 kts | 144° |
| 2026-05-05 13:20 | -5.23693 | 10.68817 | 36905 ft | 495 kts | 144° |
| 2026-05-05 13:21 | -5.29283 | 10.72789 | 36904 ft | 495 kts | 144° |
| 2026-05-05 13:21 | -5.34922 | 10.76769 | 36899 ft | 495 kts | 144° |
| 2026-05-05 13:22 | -5.40563 | 10.80724 | 36903 ft | 494 kts | 144° |
| 2026-05-05 13:22 | -5.46190 | 10.84670 | 36902 ft | 493 kts | 144° |
| 2026-05-05 13:23 | -5.51804 | 10.88614 | 36898 ft | 492 kts | 144° |
| 2026-05-05 13:23 | -5.57365 | 10.92525 | 36899 ft | 491 kts | 144° |
| 2026-05-05 13:24 | -5.62964 | 10.96465 | 36908 ft | 491 kts | 144° |
| 2026-05-05 13:24 | -5.68561 | 11.00402 | 36901 ft | 491 kts | 144° |
| 2026-05-05 13:25 | -5.74158 | 11.04339 | 36901 ft | 491 kts | 144° |
| 2026-05-05 13:25 | -5.79752 | 11.08277 | 36902 ft | 491 kts | 144° |
| 2026-05-05 13:26 | -5.85349 | 11.12217 | 36897 ft | 491 kts | 144° |
| 2026-05-05 13:26 | -5.90945 | 11.16157 | 36899 ft | 491 kts | 144° |
| 2026-05-05 13:27 | -5.96504 | 11.20072 | 36899 ft | 491 kts | 144° |
| 2026-05-05 13:27 | -6.02097 | 11.24013 | 36899 ft | 491 kts | 145° |
| 2026-05-05 13:28 | -6.07705 | 11.27965 | 36902 ft | 492 kts | 145° |
| 2026-05-05 13:28 | -6.13315 | 11.31920 | 36894 ft | 492 kts | 144° |
| 2026-05-05 13:29 | -6.18880 | 11.35843 | 36897 ft | 492 kts | 144° |
| 2026-05-05 13:29 | -6.24496 | 11.39803 | 36896 ft | 492 kts | 144° |
| 2026-05-05 13:30 | -6.30115 | 11.43767 | 36900 ft | 492 kts | 144° |
| 2026-05-05 13:30 | -6.35729 | 11.47729 | 36900 ft | 492 kts | 145° |
| 2026-05-05 13:31 | -6.41306 | 11.51665 | 36898 ft | 493 kts | 145° |
| 2026-05-05 13:31 | -6.46926 | 11.55633 | 36899 ft | 492 kts | 145° |
| 2026-05-05 13:32 | -6.52553 | 11.59607 | 36895 ft | 493 kts | 144° |
| 2026-05-05 13:32 | -6.58118 | 11.63554 | 36896 ft | 492 kts | 144° |
| 2026-05-05 13:33 | -6.63732 | 11.67530 | 36897 ft | 492 kts | 144° |
| 2026-05-05 13:33 | -6.69354 | 11.71504 | 36895 ft | 492 kts | 144° |
| 2026-05-05 13:34 | -6.74934 | 11.75447 | 36894 ft | 492 kts | 144° |
| 2026-05-05 13:34 | -6.80556 | 11.79420 | 36895 ft | 493 kts | 144° |
| 2026-05-05 13:35 | -6.86146 | 11.83375 | 36897 ft | 493 kts | 144° |
| 2026-05-05 13:35 | -6.91781 | 11.87361 | 36892 ft | 494 kts | 144° |
| 2026-05-05 13:36 | -6.97377 | 11.91321 | 36890 ft | 494 kts | 144° |
| 2026-05-05 13:36 | -7.03014 | 11.95312 | 36897 ft | 495 kts | 144° |
| 2026-05-05 13:37 | -7.08661 | 11.99309 | 36898 ft | 495 kts | 144° |
| 2026-05-05 13:37 | -7.14271 | 12.03278 | 36895 ft | 495 kts | 144° |
| 2026-05-05 13:38 | -7.19920 | 12.07324 | 36888 ft | 495 kts | 142° |
| 2026-05-05 13:38 | -7.24971 | 12.11997 | 36894 ft | 495 kts | 134° |
| 2026-05-05 13:39 | -7.29797 | 12.16968 | 36889 ft | 496 kts | 134° |
| 2026-05-05 13:39 | -7.34618 | 12.21900 | 36887 ft | 496 kts | 134° |
| 2026-05-05 13:40 | -7.39492 | 12.26845 | 36895 ft | 496 kts | 134° |
| 2026-05-05 13:40 | -7.44400 | 12.31807 | 36048 ft | 508 kts | 135° |
| 2026-05-05 13:41 | -7.46897 | 12.34329 | 35234 ft | 508 kts | 135° |
| 2026-05-05 13:41 | -7.49363 | 12.36822 | 34319 ft | 509 kts | 135° |
| 2026-05-05 13:41 | -7.51843 | 12.39332 | 33265 ft | 501 kts | 135° |
| 2026-05-05 13:41 | -7.54288 | 12.41806 | 32235 ft | 493 kts | 135° |
| 2026-05-05 13:42 | -7.56697 | 12.44246 | 31230 ft | 486 kts | 135° |
| 2026-05-05 13:42 | -7.59073 | 12.46652 | 30450 ft | 478 kts | 135° |
| 2026-05-05 13:42 | -7.61425 | 12.49033 | 29734 ft | 482 kts | 135° |
| 2026-05-05 13:42 | -7.63814 | 12.51454 | 28956 ft | 492 kts | 135° |
| 2026-05-05 13:43 | -7.66244 | 12.53918 | 28237 ft | 497 kts | 135° |
| 2026-05-05 13:43 | -7.68646 | 12.56356 | 27539 ft | 493 kts | 135° |
| 2026-05-05 13:43 | -7.71059 | 12.58805 | 26843 ft | 489 kts | 135° |
| 2026-05-05 13:43 | -7.73446 | 12.61229 | 26163 ft | 484 kts | 135° |
| 2026-05-05 13:44 | -7.75797 | 12.63617 | 25482 ft | 480 kts | 135° |
| 2026-05-05 13:44 | -7.78147 | 12.66003 | 24802 ft | 477 kts | 135° |
| 2026-05-05 13:44 | -7.80481 | 12.68373 | 24131 ft | 473 kts | 135° |
| 2026-05-05 13:44 | -7.82799 | 12.70727 | 23475 ft | 471 kts | 135° |
| 2026-05-05 13:45 | -7.85096 | 12.73060 | 22700 ft | 468 kts | 135° |
| 2026-05-05 13:45 | -7.87383 | 12.75383 | 22017 ft | 463 kts | 135° |
| 2026-05-05 13:45 | -7.89642 | 12.77678 | 21351 ft | 458 kts | 135° |
| 2026-05-05 13:45 | -7.91854 | 12.79927 | 20725 ft | 454 kts | 135° |
| 2026-05-05 13:46 | -7.94072 | 12.82181 | 20092 ft | 450 kts | 135° |
| 2026-05-05 13:46 | -7.96276 | 12.84421 | 19450 ft | 447 kts | 134° |
| 2026-05-05 13:46 | -7.98462 | 12.86643 | 18819 ft | 444 kts | 134° |
| 2026-05-05 13:46 | -8.00600 | 12.88818 | 18179 ft | 428 kts | 134° |
| 2026-05-05 13:47 | -8.02641 | 12.90893 | 17505 ft | 414 kts | 134° |
| 2026-05-05 13:47 | -8.04638 | 12.92924 | 16892 ft | 399 kts | 134° |
| 2026-05-05 13:47 | -8.06563 | 12.94883 | 16329 ft | 387 kts | 134° |
| 2026-05-05 13:47 | -8.08470 | 12.96824 | 15801 ft | 390 kts | 134° |
| 2026-05-05 13:48 | -8.10356 | 12.98742 | 15396 ft | 376 kts | 134° |
| 2026-05-05 13:48 | -8.12143 | 13.00560 | 14975 ft | 363 kts | 134° |
| 2026-05-05 13:48 | -8.13895 | 13.02344 | 14555 ft | 355 kts | 134° |
| 2026-05-05 13:48 | -8.15634 | 13.04114 | 14145 ft | 354 kts | 134° |
| 2026-05-05 13:49 | -8.17362 | 13.05875 | 13705 ft | 353 kts | 133° |
| 2026-05-05 13:49 | -8.19094 | 13.07639 | 13228 ft | 353 kts | 133° |
| 2026-05-05 13:49 | -8.20818 | 13.09396 | 12766 ft | 351 kts | 134° |
| 2026-05-05 13:49 | -8.22536 | 13.11147 | 12335 ft | 350 kts | 134° |
| 2026-05-05 13:50 | -8.24248 | 13.12891 | 11887 ft | 348 kts | 134° |
| 2026-05-05 13:50 | -8.25947 | 13.14623 | 11457 ft | 347 kts | 134° |
| 2026-05-05 13:50 | -8.27642 | 13.16351 | 11042 ft | 345 kts | 134° |
| 2026-05-05 13:50 | -8.29310 | 13.18050 | 10631 ft | 344 kts | 134° |
| 2026-05-05 13:51 | -8.30981 | 13.19753 | 10388 ft | 336 kts | 134° |
| 2026-05-05 13:51 | -8.32608 | 13.21411 | 10219 ft | 327 kts | 134° |
| 2026-05-05 13:51 | -8.34191 | 13.23024 | 10080 ft | 318 kts | 134° |
| 2026-05-05 13:51 | -8.35726 | 13.24590 | 9939 ft | 309 kts | 134° |
| 2026-05-05 13:52 | -8.37224 | 13.26118 | 9697 ft | 305 kts | 134° |
| 2026-05-05 13:52 | -8.38707 | 13.27631 | 9382 ft | 301 kts | 134° |
| 2026-05-05 13:52 | -8.40178 | 13.29133 | 9049 ft | 300 kts | 134° |
| 2026-05-05 13:52 | -8.41643 | 13.30628 | 8748 ft | 297 kts | 134° |
| 2026-05-05 13:53 | -8.43074 | 13.32089 | 8632 ft | 287 kts | 134° |
| 2026-05-05 13:53 | -8.44440 | 13.33482 | 8554 ft | 276 kts | 134° |
| 2026-05-05 13:53 | -8.45768 | 13.34837 | 8453 ft | 266 kts | 134° |
| 2026-05-05 13:53 | -8.47050 | 13.36144 | 8340 ft | 257 kts | 135° |
| 2026-05-05 13:54 | -8.48458 | 13.37182 | 7981 ft | 252 kts | 163° |
| 2026-05-05 13:54 | -8.50173 | 13.37375 | 7675 ft | 246 kts | 179° |
| 2026-05-05 13:54 | -8.51894 | 13.37427 | 7361 ft | 249 kts | 177° |
| 2026-05-05 13:54 | -8.53639 | 13.37503 | 7061 ft | 251 kts | 177° |
| 2026-05-05 13:55 | -8.55375 | 13.37586 | 6702 ft | 248 kts | 177° |
| 2026-05-05 13:55 | -8.57081 | 13.37670 | 6325 ft | 244 kts | 176° |
| 2026-05-05 13:55 | -8.58759 | 13.37754 | 5955 ft | 239 kts | 176° |
| 2026-05-05 13:55 | -8.60417 | 13.37840 | 5522 ft | 238 kts | 176° |
| 2026-05-05 13:56 | -8.62061 | 13.37926 | 5091 ft | 235 kts | 175° |
| 2026-05-05 13:56 | -8.63685 | 13.38012 | 4665 ft | 233 kts | 175° |
| 2026-05-05 13:56 | -8.65267 | 13.38096 | 4309 ft | 226 kts | 175° |
| 2026-05-05 13:56 | -8.66816 | 13.38179 | 4123 ft | 220 kts | 175° |
| 2026-05-05 13:57 | -8.68337 | 13.38261 | 3867 ft | 218 kts | 176° |
| 2026-05-05 13:57 | -8.69844 | 13.38318 | 3593 ft | 215 kts | 179° |
| 2026-05-05 13:57 | -8.71321 | 13.38200 | 3321 ft | 211 kts | 195° |
| 2026-05-05 13:57 | -8.72541 | 13.37433 | 3110 ft | 202 kts | 218° |
| 2026-05-05 13:58 | -8.73553 | 13.36500 | 3095 ft | 194 kts | 222° |
| 2026-05-05 13:58 | -8.74500 | 13.35539 | 3019 ft | 192 kts | 224° |
| 2026-05-05 13:58 | -8.75104 | 13.34897 | 2972 ft | 189 kts | 223° |
| 2026-05-05 13:58 | -8.76021 | 13.33916 | 2855 ft | 194 kts | 223° |
| 2026-05-05 13:59 | -8.77776 | 13.32025 | 2424 ft | 176 kts | 224° |
| 2026-05-05 13:59 | -8.78593 | 13.31150 | 2164 ft | 165 kts | 225° |
| 2026-05-05 14:00 | -8.80045 | 13.29586 | 1776 ft | 149 kts | 226° |
| 2026-05-05 14:00 | -8.80751 | 13.28826 | 1605 ft | 147 kts | 227° |
| 2026-05-05 14:00 | -8.81445 | 13.28079 | 1408 ft | 145 kts | 227° |
| 2026-05-05 14:00 | -8.82123 | 13.27351 | 1243 ft | 139 kts | 227° |
| 2026-05-05 14:01 | -8.82792 | 13.26638 | 1019 ft | 140 kts | 230° |
| 2026-05-05 14:01 | -8.83444 | 13.25931 | 824 ft | 143 kts | 228° |
| 2026-05-05 14:01 | -8.84117 | 13.25214 | 663 ft | 138 kts | 229° |
| 2026-05-05 14:01 | -8.84781 | 13.24499 | 482 ft | 141 kts | 230° |
| 2026-05-05 14:02 | -8.85456 | 13.23774 | 309 ft | 143 kts | 229° |
| 2026-05-05 14:02 | -8.86107 | 13.23070 | 263 ft | 123 kts | 226° |
| 2026-05-05 14:02 | -8.86569 | 13.22579 | 265 ft | 70 kts | 226° |
| 2026-05-05 14:02 | -8.86781 | 13.22353 | 264 ft | 25 kts | 227° |
| 2026-05-05 14:03 | -8.86843 | 13.22268 | 263 ft | 12 kts | 266° |
| 2026-05-05 14:03 | -8.86791 | 13.22213 | 263 ft | 12 kts | 6° |
| 2026-05-05 14:03 | -8.86725 | 13.22262 | 263 ft | 12 kts | 56° |
| 2026-05-05 14:03 | -8.86712 | 13.22342 | 264 ft | 12 kts | 90° |
| 2026-05-05 14:04 | -8.86701 | 13.22426 | 264 ft | 12 kts | 63° |
| 2026-05-05 14:04 | -8.86647 | 13.22494 | 264 ft | 13 kts | 46° |
| 2026-05-05 14:04 | -8.86586 | 13.22559 | 265 ft | 13 kts | 47° |
| 2026-05-05 14:04 | -8.86527 | 13.22623 | 265 ft | 13 kts | 46° |
| 2026-05-05 14:05 | -8.86452 | 13.22673 | 264 ft | 13 kts | 15° |
| 2026-05-05 14:05 | -8.86356 | 13.22680 | 263 ft | 14 kts | 2° |
| 2026-05-05 14:05 | -8.86261 | 13.22687 | 264 ft | 14 kts | 12° |
| 2026-05-05 14:05 | -8.86180 | 13.22743 | 264 ft | 14 kts | 46° |
| 2026-05-05 14:06 | -8.86116 | 13.22816 | 263 ft | 14 kts | 50° |
| 2026-05-05 14:06 | -8.86046 | 13.22889 | 263 ft | 15 kts | 47° |
| 2026-05-05 14:06 | -8.85975 | 13.22965 | 263 ft | 15 kts | 46° |
| 2026-05-05 14:06 | -8.85897 | 13.23037 | 264 ft | 15 kts | 30° |
| 2026-05-05 14:07 | -8.85794 | 13.23058 | 264 ft | 15 kts | 2° |
| 2026-05-05 14:07 | -8.85687 | 13.23061 | 264 ft | 15 kts | 2° |
| 2026-05-05 14:07 | -8.85581 | 13.23065 | 264 ft | 15 kts | 1° |
| 2026-05-05 14:07 | -8.85475 | 13.23068 | 265 ft | 15 kts | 3° |
| 2026-05-05 14:08 | -8.85369 | 13.23076 | 266 ft | 15 kts | 17° |
| 2026-05-05 14:08 | -8.85306 | 13.23160 | 265 ft | 16 kts | 68° |
| 2026-05-05 14:08 | -8.85263 | 13.23264 | 265 ft | 16 kts | 68° |
| 2026-05-05 14:08 | -8.85221 | 13.23369 | 264 ft | 17 kts | 68° |
| 2026-05-05 14:09 | -8.85175 | 13.23479 | 263 ft | 15 kts | 67° |
| 2026-05-05 14:09 | -8.85135 | 13.23556 | 263 ft | 8 kts | 37° |
| 2026-05-05 14:09 | -8.85079 | 13.23552 | 263 ft | 8 kts | 341° |
| 2026-05-05 14:09 | -8.85024 | 13.23530 | 264 ft | 8 kts | 337° |
| 2026-05-05 14:10 | -8.84970 | 13.23507 | 264 ft | 9 kts | 335° |
| 2026-05-05 14:10 | -8.84945 | 13.23458 | 264 ft | 9 kts | 266° |
| 2026-05-05 14:10 | -8.84980 | 13.23425 | 264 ft | 7 kts | 170° |
| 2026-05-05 14:10 | -8.85007 | 13.23436 | 264 ft | 2 kts | 159° |
| 2026-05-05 14:11 | -8.85023 | 13.23443 | 264 ft | 2 kts | 157° |
| 2026-05-05 14:11 | -8.85033 | 13.23447 | 264 ft | 0 kts | 157° |